<?xml version="1.0" encoding="UTF-8" standalone="no" ?>
<gpx xmlns="http://www.topografix.com/GPX/1/1" xmlns:xsi="http://www.w3.org/2001/XMLSchema-instance" xsi:schemaLocation="http://www.topografix.com/GPX/1/1 http://www.topografix.com/GPX/1/1/gpx.xsd" version="1.1" creator="VisuGPX - https://www.visugpx.com">
  <metadata>
    <name>BPF55km2026</name>
  </metadata>
  <trk>
    <name><![CDATA[BPF-55 KM-2026-23033758]]></name>
    <extensions>
      <line xmlns="http://www.topografix.com/GPX/gpx_style/0/2">
        <color>0000FF</color>
        <width>4</width>
      </line>
    </extensions>
    <trkseg>
      <trkpt lat="50.56756" lon="3.44531">
        <ele>20</ele>
        <time>2025-12-15T15:18:07Z</time>
      </trkpt>
      <trkpt lat="50.56767" lon="3.44531">
        <ele>20</ele>
        <time>2025-12-15T15:18:09Z</time>
      </trkpt>
      <trkpt lat="50.56803" lon="3.44585">
        <ele>21</ele>
        <time>2025-12-15T15:18:18Z</time>
      </trkpt>
      <trkpt lat="50.5684" lon="3.44631">
        <ele>23</ele>
        <time>2025-12-15T15:18:26Z</time>
      </trkpt>
      <trkpt lat="50.56772" lon="3.44956">
        <ele>32</ele>
        <time>2025-12-15T15:19:05Z</time>
      </trkpt>
      <trkpt lat="50.5677" lon="3.44999">
        <ele>34</ele>
        <time>2025-12-15T15:19:10Z</time>
      </trkpt>
      <trkpt lat="50.56737" lon="3.45141">
        <ele>36</ele>
        <time>2025-12-15T15:19:27Z</time>
      </trkpt>
      <trkpt lat="50.56722" lon="3.45284">
        <ele>37</ele>
        <time>2025-12-15T15:19:43Z</time>
      </trkpt>
      <trkpt lat="50.56716" lon="3.45306">
        <ele>37</ele>
        <time>2025-12-15T15:19:46Z</time>
      </trkpt>
      <trkpt lat="50.56693" lon="3.45358">
        <ele>38</ele>
        <time>2025-12-15T15:19:53Z</time>
      </trkpt>
      <trkpt lat="50.56666" lon="3.45444">
        <ele>38</ele>
        <time>2025-12-15T15:20:04Z</time>
      </trkpt>
      <trkpt lat="50.56399" lon="3.45192">
        <ele>39</ele>
        <time>2025-12-15T15:20:59Z</time>
      </trkpt>
      <trkpt lat="50.56364" lon="3.45299">
        <ele>40</ele>
        <time>2025-12-15T15:21:13Z</time>
      </trkpt>
      <trkpt lat="50.56228" lon="3.45538">
        <ele>37</ele>
        <time>2025-12-15T15:21:49Z</time>
      </trkpt>
      <trkpt lat="50.56192" lon="3.45645">
        <ele>36</ele>
        <time>2025-12-15T15:22:03Z</time>
      </trkpt>
      <trkpt lat="50.56178" lon="3.45679">
        <ele>35</ele>
        <time>2025-12-15T15:22:07Z</time>
      </trkpt>
      <trkpt lat="50.56099" lon="3.45847">
        <ele>31</ele>
        <time>2025-12-15T15:22:31Z</time>
      </trkpt>
      <trkpt lat="50.56053" lon="3.45961">
        <ele>30</ele>
        <time>2025-12-15T15:22:46Z</time>
      </trkpt>
      <trkpt lat="50.55989" lon="3.46088">
        <ele>26</ele>
        <time>2025-12-15T15:23:05Z</time>
      </trkpt>
      <trkpt lat="50.55896" lon="3.46264">
        <ele>28</ele>
        <time>2025-12-15T15:23:31Z</time>
      </trkpt>
      <trkpt lat="50.55847" lon="3.46346">
        <ele>28</ele>
        <time>2025-12-15T15:23:43Z</time>
      </trkpt>
      <trkpt lat="50.55814" lon="3.46418">
        <ele>27</ele>
        <time>2025-12-15T15:23:53Z</time>
      </trkpt>
      <trkpt lat="50.55804" lon="3.4641">
        <ele>28</ele>
        <time>2025-12-15T15:23:55Z</time>
      </trkpt>
      <trkpt lat="50.55795" lon="3.46394">
        <ele>28</ele>
        <time>2025-12-15T15:23:58Z</time>
      </trkpt>
      <trkpt lat="50.55795" lon="3.46352">
        <ele>29</ele>
        <time>2025-12-15T15:24:02Z</time>
      </trkpt>
      <trkpt lat="50.55808" lon="3.46307">
        <ele>28</ele>
        <time>2025-12-15T15:24:08Z</time>
      </trkpt>
      <trkpt lat="50.55815" lon="3.46106">
        <ele>25</ele>
        <time>2025-12-15T15:24:31Z</time>
      </trkpt>
      <trkpt lat="50.55811" lon="3.4608">
        <ele>25</ele>
        <time>2025-12-15T15:24:34Z</time>
      </trkpt>
      <trkpt lat="50.55778" lon="3.45951">
        <ele>25</ele>
        <time>2025-12-15T15:24:50Z</time>
      </trkpt>
      <trkpt lat="50.55756" lon="3.45901">
        <ele>26</ele>
        <time>2025-12-15T15:24:56Z</time>
      </trkpt>
      <trkpt lat="50.55709" lon="3.45822">
        <ele>25</ele>
        <time>2025-12-15T15:25:09Z</time>
      </trkpt>
      <trkpt lat="50.55647" lon="3.45728">
        <ele>24</ele>
        <time>2025-12-15T15:25:24Z</time>
      </trkpt>
      <trkpt lat="50.55613" lon="3.45699">
        <ele>24</ele>
        <time>2025-12-15T15:25:31Z</time>
      </trkpt>
      <trkpt lat="50.55597" lon="3.45696">
        <ele>24</ele>
        <time>2025-12-15T15:25:34Z</time>
      </trkpt>
      <trkpt lat="50.55524" lon="3.45635">
        <ele>26</ele>
        <time>2025-12-15T15:25:48Z</time>
      </trkpt>
      <trkpt lat="50.55517" lon="3.45626">
        <ele>26</ele>
        <time>2025-12-15T15:25:50Z</time>
      </trkpt>
      <trkpt lat="50.55514" lon="3.45605">
        <ele>26</ele>
        <time>2025-12-15T15:25:52Z</time>
      </trkpt>
      <trkpt lat="50.55528" lon="3.45539">
        <ele>25</ele>
        <time>2025-12-15T15:26:00Z</time>
      </trkpt>
      <trkpt lat="50.5554" lon="3.455">
        <ele>24</ele>
        <time>2025-12-15T15:26:05Z</time>
      </trkpt>
      <trkpt lat="50.55577" lon="3.45431">
        <ele>22</ele>
        <time>2025-12-15T15:26:15Z</time>
      </trkpt>
      <trkpt lat="50.55583" lon="3.45411">
        <ele>22</ele>
        <time>2025-12-15T15:26:18Z</time>
      </trkpt>
      <trkpt lat="50.55608" lon="3.45371">
        <ele>22</ele>
        <time>2025-12-15T15:26:24Z</time>
      </trkpt>
      <trkpt lat="50.55636" lon="3.45317">
        <ele>22</ele>
        <time>2025-12-15T15:26:32Z</time>
      </trkpt>
      <trkpt lat="50.55656" lon="3.45288">
        <ele>21</ele>
        <time>2025-12-15T15:26:37Z</time>
      </trkpt>
      <trkpt lat="50.55685" lon="3.45268">
        <ele>21</ele>
        <time>2025-12-15T15:26:43Z</time>
      </trkpt>
      <trkpt lat="50.55693" lon="3.45245">
        <ele>21</ele>
        <time>2025-12-15T15:26:46Z</time>
      </trkpt>
      <trkpt lat="50.55662" lon="3.45111">
        <ele>20</ele>
        <time>2025-12-15T15:27:02Z</time>
      </trkpt>
      <trkpt lat="50.55613" lon="3.45018">
        <ele>19</ele>
        <time>2025-12-15T15:27:15Z</time>
      </trkpt>
      <trkpt lat="50.55596" lon="3.44979">
        <ele>18</ele>
        <time>2025-12-15T15:27:21Z</time>
      </trkpt>
      <trkpt lat="50.55566" lon="3.44893">
        <ele>18</ele>
        <time>2025-12-15T15:27:32Z</time>
      </trkpt>
      <trkpt lat="50.55521" lon="3.44791">
        <ele>18</ele>
        <time>2025-12-15T15:27:46Z</time>
      </trkpt>
      <trkpt lat="50.55452" lon="3.44666">
        <ele>17</ele>
        <time>2025-12-15T15:28:05Z</time>
      </trkpt>
      <trkpt lat="50.55338" lon="3.44829">
        <ele>18</ele>
        <time>2025-12-15T15:28:32Z</time>
      </trkpt>
      <trkpt lat="50.55176" lon="3.45125">
        <ele>20</ele>
        <time>2025-12-15T15:29:16Z</time>
      </trkpt>
      <trkpt lat="50.55107" lon="3.45263">
        <ele>22</ele>
        <time>2025-12-15T15:29:36Z</time>
      </trkpt>
      <trkpt lat="50.55044" lon="3.45409">
        <ele>22</ele>
        <time>2025-12-15T15:29:56Z</time>
      </trkpt>
      <trkpt lat="50.55034" lon="3.45414">
        <ele>22</ele>
        <time>2025-12-15T15:29:58Z</time>
      </trkpt>
      <trkpt lat="50.55112" lon="3.45701">
        <ele>24</ele>
        <time>2025-12-15T15:30:33Z</time>
      </trkpt>
      <trkpt lat="50.5512" lon="3.4579">
        <ele>25</ele>
        <time>2025-12-15T15:30:43Z</time>
      </trkpt>
      <trkpt lat="50.55136" lon="3.45826">
        <ele>25</ele>
        <time>2025-12-15T15:30:48Z</time>
      </trkpt>
      <trkpt lat="50.55141" lon="3.45854">
        <ele>25</ele>
        <time>2025-12-15T15:30:52Z</time>
      </trkpt>
      <trkpt lat="50.5514" lon="3.45871">
        <ele>26</ele>
        <time>2025-12-15T15:30:53Z</time>
      </trkpt>
      <trkpt lat="50.55112" lon="3.45981">
        <ele>27</ele>
        <time>2025-12-15T15:31:07Z</time>
      </trkpt>
      <trkpt lat="50.55111" lon="3.45996">
        <ele>27</ele>
        <time>2025-12-15T15:31:09Z</time>
      </trkpt>
      <trkpt lat="50.55117" lon="3.46077">
        <ele>27</ele>
        <time>2025-12-15T15:31:18Z</time>
      </trkpt>
      <trkpt lat="50.55114" lon="3.46098">
        <ele>27</ele>
        <time>2025-12-15T15:31:20Z</time>
      </trkpt>
      <trkpt lat="50.55095" lon="3.46136">
        <ele>26</ele>
        <time>2025-12-15T15:31:26Z</time>
      </trkpt>
      <trkpt lat="50.55064" lon="3.46185">
        <ele>25</ele>
        <time>2025-12-15T15:31:33Z</time>
      </trkpt>
      <trkpt lat="50.55033" lon="3.46152">
        <ele>25</ele>
        <time>2025-12-15T15:31:40Z</time>
      </trkpt>
      <trkpt lat="50.54919" lon="3.46084">
        <ele>23</ele>
        <time>2025-12-15T15:32:02Z</time>
      </trkpt>
      <trkpt lat="50.54864" lon="3.46056">
        <ele>23</ele>
        <time>2025-12-15T15:32:12Z</time>
      </trkpt>
      <trkpt lat="50.54847" lon="3.46058">
        <ele>23</ele>
        <time>2025-12-15T15:32:15Z</time>
      </trkpt>
      <trkpt lat="50.54806" lon="3.46178">
        <ele>23</ele>
        <time>2025-12-15T15:32:31Z</time>
      </trkpt>
      <trkpt lat="50.54762" lon="3.4624">
        <ele>23</ele>
        <time>2025-12-15T15:32:41Z</time>
      </trkpt>
      <trkpt lat="50.5482" lon="3.46483">
        <ele>22</ele>
        <time>2025-12-15T15:33:10Z</time>
      </trkpt>
      <trkpt lat="50.54901" lon="3.46793">
        <ele>22</ele>
        <time>2025-12-15T15:33:48Z</time>
      </trkpt>
      <trkpt lat="50.55164" lon="3.47875">
        <ele>27</ele>
        <time>2025-12-15T15:35:59Z</time>
      </trkpt>
      <trkpt lat="50.55193" lon="3.48002">
        <ele>27</ele>
        <time>2025-12-15T15:36:15Z</time>
      </trkpt>
      <trkpt lat="50.55202" lon="3.48026">
        <ele>27</ele>
        <time>2025-12-15T15:36:18Z</time>
      </trkpt>
      <trkpt lat="50.55212" lon="3.48008">
        <ele>26</ele>
        <time>2025-12-15T15:36:20Z</time>
      </trkpt>
      <trkpt lat="50.55262" lon="3.47984">
        <ele>26</ele>
        <time>2025-12-15T15:36:30Z</time>
      </trkpt>
      <trkpt lat="50.55363" lon="3.47919">
        <ele>28</ele>
        <time>2025-12-15T15:36:49Z</time>
      </trkpt>
      <trkpt lat="50.55589" lon="3.47782">
        <ele>32</ele>
        <time>2025-12-15T15:37:32Z</time>
      </trkpt>
      <trkpt lat="50.55614" lon="3.4777">
        <ele>33</ele>
        <time>2025-12-15T15:37:37Z</time>
      </trkpt>
      <trkpt lat="50.55682" lon="3.4776">
        <ele>35</ele>
        <time>2025-12-15T15:37:49Z</time>
      </trkpt>
      <trkpt lat="50.55697" lon="3.47752">
        <ele>35</ele>
        <time>2025-12-15T15:37:52Z</time>
      </trkpt>
      <trkpt lat="50.55711" lon="3.47735">
        <ele>35</ele>
        <time>2025-12-15T15:37:55Z</time>
      </trkpt>
      <trkpt lat="50.55729" lon="3.47697">
        <ele>34</ele>
        <time>2025-12-15T15:38:00Z</time>
      </trkpt>
      <trkpt lat="50.55748" lon="3.47678">
        <ele>33</ele>
        <time>2025-12-15T15:38:04Z</time>
      </trkpt>
      <trkpt lat="50.55766" lon="3.47674">
        <ele>33</ele>
        <time>2025-12-15T15:38:08Z</time>
      </trkpt>
      <trkpt lat="50.5585" lon="3.47677">
        <ele>30</ele>
        <time>2025-12-15T15:38:23Z</time>
      </trkpt>
      <trkpt lat="50.5588" lon="3.47697">
        <ele>31</ele>
        <time>2025-12-15T15:38:28Z</time>
      </trkpt>
      <trkpt lat="50.55902" lon="3.47744">
        <ele>32</ele>
        <time>2025-12-15T15:38:35Z</time>
      </trkpt>
      <trkpt lat="50.55919" lon="3.47767">
        <ele>33</ele>
        <time>2025-12-15T15:38:39Z</time>
      </trkpt>
      <trkpt lat="50.56023" lon="3.47768">
        <ele>33</ele>
        <time>2025-12-15T15:38:57Z</time>
      </trkpt>
      <trkpt lat="50.56081" lon="3.47789">
        <ele>36</ele>
        <time>2025-12-15T15:39:08Z</time>
      </trkpt>
      <trkpt lat="50.56145" lon="3.47873">
        <ele>37</ele>
        <time>2025-12-15T15:39:23Z</time>
      </trkpt>
      <trkpt lat="50.56107" lon="3.48178">
        <ele>38</ele>
        <time>2025-12-15T15:39:58Z</time>
      </trkpt>
      <trkpt lat="50.56097" lon="3.48294">
        <ele>36</ele>
        <time>2025-12-15T15:40:11Z</time>
      </trkpt>
      <trkpt lat="50.56077" lon="3.4841">
        <ele>36</ele>
        <time>2025-12-15T15:40:25Z</time>
      </trkpt>
      <trkpt lat="50.56049" lon="3.48533">
        <ele>33</ele>
        <time>2025-12-15T15:40:40Z</time>
      </trkpt>
      <trkpt lat="50.55997" lon="3.48653">
        <ele>32</ele>
        <time>2025-12-15T15:40:56Z</time>
      </trkpt>
      <trkpt lat="50.55958" lon="3.48682">
        <ele>31</ele>
        <time>2025-12-15T15:41:04Z</time>
      </trkpt>
      <trkpt lat="50.55949" lon="3.487">
        <ele>31</ele>
        <time>2025-12-15T15:41:06Z</time>
      </trkpt>
      <trkpt lat="50.55921" lon="3.48801">
        <ele>30</ele>
        <time>2025-12-15T15:41:19Z</time>
      </trkpt>
      <trkpt lat="50.55909" lon="3.48901">
        <ele>28</ele>
        <time>2025-12-15T15:41:30Z</time>
      </trkpt>
      <trkpt lat="50.55898" lon="3.48968">
        <ele>30</ele>
        <time>2025-12-15T15:41:38Z</time>
      </trkpt>
      <trkpt lat="50.55871" lon="3.49081">
        <ele>33</ele>
        <time>2025-12-15T15:41:52Z</time>
      </trkpt>
      <trkpt lat="50.55859" lon="3.49241">
        <ele>31</ele>
        <time>2025-12-15T15:42:10Z</time>
      </trkpt>
      <trkpt lat="50.55736" lon="3.49234">
        <ele>32</ele>
        <time>2025-12-15T15:42:32Z</time>
      </trkpt>
      <trkpt lat="50.55707" lon="3.4922">
        <ele>31</ele>
        <time>2025-12-15T15:42:37Z</time>
      </trkpt>
      <trkpt lat="50.55672" lon="3.4918">
        <ele>32</ele>
        <time>2025-12-15T15:42:45Z</time>
      </trkpt>
      <trkpt lat="50.55632" lon="3.49158">
        <ele>31</ele>
        <time>2025-12-15T15:42:52Z</time>
      </trkpt>
      <trkpt lat="50.5562" lon="3.4916">
        <ele>31</ele>
        <time>2025-12-15T15:42:55Z</time>
      </trkpt>
      <trkpt lat="50.55615" lon="3.49171">
        <ele>31</ele>
        <time>2025-12-15T15:42:56Z</time>
      </trkpt>
      <trkpt lat="50.55585" lon="3.49308">
        <ele>30</ele>
        <time>2025-12-15T15:43:12Z</time>
      </trkpt>
      <trkpt lat="50.55578" lon="3.49323">
        <ele>30</ele>
        <time>2025-12-15T15:43:15Z</time>
      </trkpt>
      <trkpt lat="50.55489" lon="3.49348">
        <ele>29</ele>
        <time>2025-12-15T15:43:31Z</time>
      </trkpt>
      <trkpt lat="50.55471" lon="3.49349">
        <ele>28</ele>
        <time>2025-12-15T15:43:34Z</time>
      </trkpt>
      <trkpt lat="50.55458" lon="3.49361">
        <ele>28</ele>
        <time>2025-12-15T15:43:37Z</time>
      </trkpt>
      <trkpt lat="50.55451" lon="3.49383">
        <ele>28</ele>
        <time>2025-12-15T15:43:39Z</time>
      </trkpt>
      <trkpt lat="50.55438" lon="3.49442">
        <ele>29</ele>
        <time>2025-12-15T15:43:46Z</time>
      </trkpt>
      <trkpt lat="50.55397" lon="3.49642">
        <ele>34</ele>
        <time>2025-12-15T15:44:10Z</time>
      </trkpt>
      <trkpt lat="50.55393" lon="3.49722">
        <ele>37</ele>
        <time>2025-12-15T15:44:19Z</time>
      </trkpt>
      <trkpt lat="50.55388" lon="3.49743">
        <ele>38</ele>
        <time>2025-12-15T15:44:22Z</time>
      </trkpt>
      <trkpt lat="50.55353" lon="3.49845">
        <ele>38</ele>
        <time>2025-12-15T15:44:35Z</time>
      </trkpt>
      <trkpt lat="50.55302" lon="3.49929">
        <ele>34</ele>
        <time>2025-12-15T15:44:48Z</time>
      </trkpt>
      <trkpt lat="50.55247" lon="3.50041">
        <ele>34</ele>
        <time>2025-12-15T15:45:04Z</time>
      </trkpt>
      <trkpt lat="50.5514" lon="3.50452">
        <ele>39</ele>
        <time>2025-12-15T15:45:54Z</time>
      </trkpt>
      <trkpt lat="50.55089" lon="3.50567">
        <ele>39</ele>
        <time>2025-12-15T15:46:10Z</time>
      </trkpt>
      <trkpt lat="50.55086" lon="3.50592">
        <ele>39</ele>
        <time>2025-12-15T15:46:13Z</time>
      </trkpt>
      <trkpt lat="50.55087" lon="3.50621">
        <ele>40</ele>
        <time>2025-12-15T15:46:16Z</time>
      </trkpt>
      <trkpt lat="50.55101" lon="3.50663">
        <ele>41</ele>
        <time>2025-12-15T15:46:22Z</time>
      </trkpt>
      <trkpt lat="50.55104" lon="3.50688">
        <ele>41</ele>
        <time>2025-12-15T15:46:24Z</time>
      </trkpt>
      <trkpt lat="50.55102" lon="3.50716">
        <ele>42</ele>
        <time>2025-12-15T15:46:28Z</time>
      </trkpt>
      <trkpt lat="50.5509" lon="3.50786">
        <ele>43</ele>
        <time>2025-12-15T15:46:36Z</time>
      </trkpt>
      <trkpt lat="50.5509" lon="3.50814">
        <ele>44</ele>
        <time>2025-12-15T15:46:39Z</time>
      </trkpt>
      <trkpt lat="50.55094" lon="3.50843">
        <ele>45</ele>
        <time>2025-12-15T15:46:42Z</time>
      </trkpt>
      <trkpt lat="50.55077" lon="3.50883">
        <ele>47</ele>
        <time>2025-12-15T15:46:48Z</time>
      </trkpt>
      <trkpt lat="50.55053" lon="3.50963">
        <ele>48</ele>
        <time>2025-12-15T15:46:58Z</time>
      </trkpt>
      <trkpt lat="50.55017" lon="3.51152">
        <ele>48</ele>
        <time>2025-12-15T15:47:20Z</time>
      </trkpt>
      <trkpt lat="50.55218" lon="3.51331">
        <ele>58</ele>
        <time>2025-12-15T15:48:01Z</time>
      </trkpt>
      <trkpt lat="50.55326" lon="3.51422">
        <ele>57</ele>
        <time>2025-12-15T15:48:23Z</time>
      </trkpt>
      <trkpt lat="50.5535" lon="3.5143">
        <ele>57</ele>
        <time>2025-12-15T15:48:27Z</time>
      </trkpt>
      <trkpt lat="50.55369" lon="3.51429">
        <ele>57</ele>
        <time>2025-12-15T15:48:31Z</time>
      </trkpt>
      <trkpt lat="50.55396" lon="3.51423">
        <ele>57</ele>
        <time>2025-12-15T15:48:36Z</time>
      </trkpt>
      <trkpt lat="50.55416" lon="3.51411">
        <ele>57</ele>
        <time>2025-12-15T15:48:39Z</time>
      </trkpt>
      <trkpt lat="50.55512" lon="3.51309">
        <ele>58</ele>
        <time>2025-12-15T15:49:00Z</time>
      </trkpt>
      <trkpt lat="50.55529" lon="3.51301">
        <ele>58</ele>
        <time>2025-12-15T15:49:03Z</time>
      </trkpt>
      <trkpt lat="50.55531" lon="3.51322">
        <ele>58</ele>
        <time>2025-12-15T15:49:06Z</time>
      </trkpt>
      <trkpt lat="50.55519" lon="3.51324">
        <ele>58</ele>
        <time>2025-12-15T15:49:08Z</time>
      </trkpt>
      <trkpt lat="50.5543" lon="3.51423">
        <ele>57</ele>
        <time>2025-12-15T15:49:27Z</time>
      </trkpt>
      <trkpt lat="50.55415" lon="3.51435">
        <ele>57</ele>
        <time>2025-12-15T15:49:30Z</time>
      </trkpt>
      <trkpt lat="50.55383" lon="3.51451">
        <ele>57</ele>
        <time>2025-12-15T15:49:36Z</time>
      </trkpt>
      <trkpt lat="50.55347" lon="3.51459">
        <ele>56</ele>
        <time>2025-12-15T15:49:43Z</time>
      </trkpt>
      <trkpt lat="50.55307" lon="3.5149">
        <ele>57</ele>
        <time>2025-12-15T15:49:50Z</time>
      </trkpt>
      <trkpt lat="50.55284" lon="3.51518">
        <ele>58</ele>
        <time>2025-12-15T15:49:56Z</time>
      </trkpt>
      <trkpt lat="50.5523" lon="3.5161">
        <ele>56</ele>
        <time>2025-12-15T15:50:10Z</time>
      </trkpt>
      <trkpt lat="50.55196" lon="3.5168">
        <ele>56</ele>
        <time>2025-12-15T15:50:20Z</time>
      </trkpt>
      <trkpt lat="50.5507" lon="3.52067">
        <ele>56</ele>
        <time>2025-12-15T15:51:09Z</time>
      </trkpt>
      <trkpt lat="50.55018" lon="3.52262">
        <ele>57</ele>
        <time>2025-12-15T15:51:33Z</time>
      </trkpt>
      <trkpt lat="50.54893" lon="3.52808">
        <ele>54</ele>
        <time>2025-12-15T15:52:38Z</time>
      </trkpt>
      <trkpt lat="50.54841" lon="3.53071">
        <ele>54</ele>
        <time>2025-12-15T15:53:10Z</time>
      </trkpt>
      <trkpt lat="50.5479" lon="3.53353">
        <ele>54</ele>
        <time>2025-12-15T15:53:43Z</time>
      </trkpt>
      <trkpt lat="50.54792" lon="3.53374">
        <ele>54</ele>
        <time>2025-12-15T15:53:45Z</time>
      </trkpt>
      <trkpt lat="50.54801" lon="3.53397">
        <ele>55</ele>
        <time>2025-12-15T15:53:48Z</time>
      </trkpt>
      <trkpt lat="50.54824" lon="3.53433">
        <ele>55</ele>
        <time>2025-12-15T15:53:54Z</time>
      </trkpt>
      <trkpt lat="50.54845" lon="3.53448">
        <ele>56</ele>
        <time>2025-12-15T15:53:58Z</time>
      </trkpt>
      <trkpt lat="50.54926" lon="3.53472">
        <ele>57</ele>
        <time>2025-12-15T15:54:13Z</time>
      </trkpt>
      <trkpt lat="50.54986" lon="3.53495">
        <ele>55</ele>
        <time>2025-12-15T15:54:24Z</time>
      </trkpt>
      <trkpt lat="50.55036" lon="3.53518">
        <ele>54</ele>
        <time>2025-12-15T15:54:33Z</time>
      </trkpt>
      <trkpt lat="50.55078" lon="3.53555">
        <ele>52</ele>
        <time>2025-12-15T15:54:42Z</time>
      </trkpt>
      <trkpt lat="50.55115" lon="3.53597">
        <ele>51</ele>
        <time>2025-12-15T15:54:50Z</time>
      </trkpt>
      <trkpt lat="50.55094" lon="3.53618">
        <ele>51</ele>
        <time>2025-12-15T15:54:54Z</time>
      </trkpt>
      <trkpt lat="50.55065" lon="3.53678">
        <ele>51</ele>
        <time>2025-12-15T15:55:03Z</time>
      </trkpt>
      <trkpt lat="50.55049" lon="3.53696">
        <ele>51</ele>
        <time>2025-12-15T15:55:06Z</time>
      </trkpt>
      <trkpt lat="50.54968" lon="3.5374">
        <ele>53</ele>
        <time>2025-12-15T15:55:21Z</time>
      </trkpt>
      <trkpt lat="50.54932" lon="3.53774">
        <ele>53</ele>
        <time>2025-12-15T15:55:29Z</time>
      </trkpt>
      <trkpt lat="50.54852" lon="3.53886">
        <ele>51</ele>
        <time>2025-12-15T15:55:48Z</time>
      </trkpt>
      <trkpt lat="50.54832" lon="3.53895">
        <ele>51</ele>
        <time>2025-12-15T15:55:52Z</time>
      </trkpt>
      <trkpt lat="50.54798" lon="3.53902">
        <ele>52</ele>
        <time>2025-12-15T15:55:58Z</time>
      </trkpt>
      <trkpt lat="50.54746" lon="3.5388">
        <ele>53</ele>
        <time>2025-12-15T15:56:07Z</time>
      </trkpt>
      <trkpt lat="50.54501" lon="3.53767">
        <ele>49</ele>
        <time>2025-12-15T15:56:53Z</time>
      </trkpt>
      <trkpt lat="50.5446" lon="3.53727">
        <ele>49</ele>
        <time>2025-12-15T15:57:01Z</time>
      </trkpt>
      <trkpt lat="50.54347" lon="3.53861">
        <ele>49</ele>
        <time>2025-12-15T15:57:26Z</time>
      </trkpt>
      <trkpt lat="50.5428" lon="3.53974">
        <ele>48</ele>
        <time>2025-12-15T15:57:44Z</time>
      </trkpt>
      <trkpt lat="50.54189" lon="3.54222">
        <ele>47</ele>
        <time>2025-12-15T15:58:16Z</time>
      </trkpt>
      <trkpt lat="50.54138" lon="3.54329">
        <ele>47</ele>
        <time>2025-12-15T15:58:31Z</time>
      </trkpt>
      <trkpt lat="50.54118" lon="3.54365">
        <ele>47</ele>
        <time>2025-12-15T15:58:37Z</time>
      </trkpt>
      <trkpt lat="50.54093" lon="3.54425">
        <ele>47</ele>
        <time>2025-12-15T15:58:45Z</time>
      </trkpt>
      <trkpt lat="50.54125" lon="3.54464">
        <ele>47</ele>
        <time>2025-12-15T15:58:52Z</time>
      </trkpt>
      <trkpt lat="50.54132" lon="3.54489">
        <ele>47</ele>
        <time>2025-12-15T15:58:55Z</time>
      </trkpt>
      <trkpt lat="50.54147" lon="3.54585">
        <ele>47</ele>
        <time>2025-12-15T15:59:06Z</time>
      </trkpt>
      <trkpt lat="50.54182" lon="3.54699">
        <ele>46</ele>
        <time>2025-12-15T15:59:21Z</time>
      </trkpt>
      <trkpt lat="50.54186" lon="3.5472">
        <ele>46</ele>
        <time>2025-12-15T15:59:23Z</time>
      </trkpt>
      <trkpt lat="50.54106" lon="3.54731">
        <ele>46</ele>
        <time>2025-12-15T15:59:37Z</time>
      </trkpt>
      <trkpt lat="50.54093" lon="3.54743">
        <ele>46</ele>
        <time>2025-12-15T15:59:40Z</time>
      </trkpt>
      <trkpt lat="50.54084" lon="3.54758">
        <ele>46</ele>
        <time>2025-12-15T15:59:43Z</time>
      </trkpt>
      <trkpt lat="50.53912" lon="3.55178">
        <ele>43</ele>
        <time>2025-12-15T16:00:39Z</time>
      </trkpt>
      <trkpt lat="50.53829" lon="3.55451">
        <ele>42</ele>
        <time>2025-12-15T16:01:13Z</time>
      </trkpt>
      <trkpt lat="50.53791" lon="3.55509">
        <ele>41</ele>
        <time>2025-12-15T16:01:23Z</time>
      </trkpt>
      <trkpt lat="50.53778" lon="3.55521">
        <ele>41</ele>
        <time>2025-12-15T16:01:25Z</time>
      </trkpt>
      <trkpt lat="50.53767" lon="3.55526">
        <ele>41</ele>
        <time>2025-12-15T16:01:27Z</time>
      </trkpt>
      <trkpt lat="50.53757" lon="3.55524">
        <ele>41</ele>
        <time>2025-12-15T16:01:29Z</time>
      </trkpt>
      <trkpt lat="50.53716" lon="3.55652">
        <ele>41</ele>
        <time>2025-12-15T16:01:45Z</time>
      </trkpt>
      <trkpt lat="50.53675" lon="3.55722">
        <ele>41</ele>
        <time>2025-12-15T16:01:56Z</time>
      </trkpt>
      <trkpt lat="50.53757" lon="3.5584">
        <ele>40</ele>
        <time>2025-12-15T16:02:16Z</time>
      </trkpt>
      <trkpt lat="50.53777" lon="3.55855">
        <ele>40</ele>
        <time>2025-12-15T16:02:20Z</time>
      </trkpt>
      <trkpt lat="50.53797" lon="3.5586">
        <ele>40</ele>
        <time>2025-12-15T16:02:23Z</time>
      </trkpt>
      <trkpt lat="50.53843" lon="3.55852">
        <ele>40</ele>
        <time>2025-12-15T16:02:32Z</time>
      </trkpt>
      <trkpt lat="50.53864" lon="3.55865">
        <ele>40</ele>
        <time>2025-12-15T16:02:36Z</time>
      </trkpt>
      <trkpt lat="50.54296" lon="3.56437">
        <ele>37</ele>
        <time>2025-12-15T16:04:16Z</time>
      </trkpt>
      <trkpt lat="50.54319" lon="3.56472">
        <ele>37</ele>
        <time>2025-12-15T16:04:22Z</time>
      </trkpt>
      <trkpt lat="50.5434" lon="3.56524">
        <ele>37</ele>
        <time>2025-12-15T16:04:29Z</time>
      </trkpt>
      <trkpt lat="50.54369" lon="3.5675">
        <ele>38</ele>
        <time>2025-12-15T16:04:55Z</time>
      </trkpt>
      <trkpt lat="50.5438" lon="3.56779">
        <ele>37</ele>
        <time>2025-12-15T16:04:59Z</time>
      </trkpt>
      <trkpt lat="50.54394" lon="3.56792">
        <ele>37</ele>
        <time>2025-12-15T16:05:02Z</time>
      </trkpt>
      <trkpt lat="50.5441" lon="3.56794">
        <ele>37</ele>
        <time>2025-12-15T16:05:04Z</time>
      </trkpt>
      <trkpt lat="50.54426" lon="3.56788">
        <ele>38</ele>
        <time>2025-12-15T16:05:07Z</time>
      </trkpt>
      <trkpt lat="50.5448" lon="3.56738">
        <ele>40</ele>
        <time>2025-12-15T16:05:19Z</time>
      </trkpt>
      <trkpt lat="50.54501" lon="3.56735">
        <ele>40</ele>
        <time>2025-12-15T16:05:22Z</time>
      </trkpt>
      <trkpt lat="50.54641" lon="3.56753">
        <ele>37</ele>
        <time>2025-12-15T16:05:47Z</time>
      </trkpt>
      <trkpt lat="50.54669" lon="3.56761">
        <ele>37</ele>
        <time>2025-12-15T16:05:52Z</time>
      </trkpt>
      <trkpt lat="50.54691" lon="3.56782">
        <ele>38</ele>
        <time>2025-12-15T16:05:57Z</time>
      </trkpt>
      <trkpt lat="50.54731" lon="3.56831">
        <ele>40</ele>
        <time>2025-12-15T16:06:06Z</time>
      </trkpt>
      <trkpt lat="50.54753" lon="3.56867">
        <ele>40</ele>
        <time>2025-12-15T16:06:12Z</time>
      </trkpt>
      <trkpt lat="50.54763" lon="3.56897">
        <ele>40</ele>
        <time>2025-12-15T16:06:15Z</time>
      </trkpt>
      <trkpt lat="50.54781" lon="3.56974">
        <ele>40</ele>
        <time>2025-12-15T16:06:25Z</time>
      </trkpt>
      <trkpt lat="50.54845" lon="3.56945">
        <ele>42</ele>
        <time>2025-12-15T16:06:37Z</time>
      </trkpt>
      <trkpt lat="50.54898" lon="3.56899">
        <ele>42</ele>
        <time>2025-12-15T16:06:47Z</time>
      </trkpt>
      <trkpt lat="50.54915" lon="3.56894">
        <ele>42</ele>
        <time>2025-12-15T16:06:50Z</time>
      </trkpt>
      <trkpt lat="50.55092" lon="3.5687">
        <ele>42</ele>
        <time>2025-12-15T16:07:22Z</time>
      </trkpt>
      <trkpt lat="50.55117" lon="3.56863">
        <ele>42</ele>
        <time>2025-12-15T16:07:27Z</time>
      </trkpt>
      <trkpt lat="50.55133" lon="3.56854">
        <ele>42</ele>
        <time>2025-12-15T16:07:30Z</time>
      </trkpt>
      <trkpt lat="50.55146" lon="3.56837">
        <ele>42</ele>
        <time>2025-12-15T16:07:33Z</time>
      </trkpt>
      <trkpt lat="50.55187" lon="3.56759">
        <ele>44</ele>
        <time>2025-12-15T16:07:44Z</time>
      </trkpt>
      <trkpt lat="50.55217" lon="3.56643">
        <ele>45</ele>
        <time>2025-12-15T16:07:58Z</time>
      </trkpt>
      <trkpt lat="50.55457" lon="3.56939">
        <ele>47</ele>
        <time>2025-12-15T16:08:52Z</time>
      </trkpt>
      <trkpt lat="50.55469" lon="3.5686">
        <ele>46</ele>
        <time>2025-12-15T16:09:02Z</time>
      </trkpt>
      <trkpt lat="50.55475" lon="3.56801">
        <ele>46</ele>
        <time>2025-12-15T16:09:08Z</time>
      </trkpt>
      <trkpt lat="50.5548" lon="3.56695">
        <ele>47</ele>
        <time>2025-12-15T16:09:20Z</time>
      </trkpt>
      <trkpt lat="50.55487" lon="3.56661">
        <ele>48</ele>
        <time>2025-12-15T16:09:24Z</time>
      </trkpt>
      <trkpt lat="50.55495" lon="3.56637">
        <ele>48</ele>
        <time>2025-12-15T16:09:27Z</time>
      </trkpt>
      <trkpt lat="50.55518" lon="3.56595">
        <ele>48</ele>
        <time>2025-12-15T16:09:34Z</time>
      </trkpt>
      <trkpt lat="50.55603" lon="3.56471">
        <ele>49</ele>
        <time>2025-12-15T16:09:54Z</time>
      </trkpt>
      <trkpt lat="50.55613" lon="3.56442">
        <ele>50</ele>
        <time>2025-12-15T16:09:58Z</time>
      </trkpt>
      <trkpt lat="50.55618" lon="3.5641">
        <ele>51</ele>
        <time>2025-12-15T16:10:02Z</time>
      </trkpt>
      <trkpt lat="50.55619" lon="3.56378">
        <ele>51</ele>
        <time>2025-12-15T16:10:05Z</time>
      </trkpt>
      <trkpt lat="50.55614" lon="3.56336">
        <ele>51</ele>
        <time>2025-12-15T16:10:10Z</time>
      </trkpt>
      <trkpt lat="50.55611" lon="3.5626">
        <ele>51</ele>
        <time>2025-12-15T16:10:19Z</time>
      </trkpt>
      <trkpt lat="50.55614" lon="3.56206">
        <ele>51</ele>
        <time>2025-12-15T16:10:25Z</time>
      </trkpt>
      <trkpt lat="50.55623" lon="3.56158">
        <ele>50</ele>
        <time>2025-12-15T16:10:31Z</time>
      </trkpt>
      <trkpt lat="50.55637" lon="3.56114">
        <ele>50</ele>
        <time>2025-12-15T16:10:36Z</time>
      </trkpt>
      <trkpt lat="50.55708" lon="3.55957">
        <ele>44</ele>
        <time>2025-12-15T16:10:58Z</time>
      </trkpt>
      <trkpt lat="50.55774" lon="3.55782">
        <ele>47</ele>
        <time>2025-12-15T16:11:21Z</time>
      </trkpt>
      <trkpt lat="50.55786" lon="3.55735">
        <ele>48</ele>
        <time>2025-12-15T16:11:27Z</time>
      </trkpt>
      <trkpt lat="50.55836" lon="3.55412">
        <ele>48</ele>
        <time>2025-12-15T16:12:04Z</time>
      </trkpt>
      <trkpt lat="50.55841" lon="3.55331">
        <ele>47</ele>
        <time>2025-12-15T16:12:14Z</time>
      </trkpt>
      <trkpt lat="50.55838" lon="3.55218">
        <ele>46</ele>
        <time>2025-12-15T16:12:26Z</time>
      </trkpt>
      <trkpt lat="50.55827" lon="3.55078">
        <ele>44</ele>
        <time>2025-12-15T16:12:42Z</time>
      </trkpt>
      <trkpt lat="50.55833" lon="3.55042">
        <ele>44</ele>
        <time>2025-12-15T16:12:46Z</time>
      </trkpt>
      <trkpt lat="50.56005" lon="3.55122">
        <ele>46</ele>
        <time>2025-12-15T16:13:18Z</time>
      </trkpt>
      <trkpt lat="50.56091" lon="3.55171">
        <ele>46</ele>
        <time>2025-12-15T16:13:35Z</time>
      </trkpt>
      <trkpt lat="50.56152" lon="3.55193">
        <ele>47</ele>
        <time>2025-12-15T16:13:46Z</time>
      </trkpt>
      <trkpt lat="50.56175" lon="3.55209">
        <ele>47</ele>
        <time>2025-12-15T16:13:50Z</time>
      </trkpt>
      <trkpt lat="50.56223" lon="3.55297">
        <ele>48</ele>
        <time>2025-12-15T16:14:03Z</time>
      </trkpt>
      <trkpt lat="50.56254" lon="3.55332">
        <ele>48</ele>
        <time>2025-12-15T16:14:10Z</time>
      </trkpt>
      <trkpt lat="50.56342" lon="3.5541">
        <ele>51</ele>
        <time>2025-12-15T16:14:28Z</time>
      </trkpt>
      <trkpt lat="50.56377" lon="3.55453">
        <ele>51</ele>
        <time>2025-12-15T16:14:36Z</time>
      </trkpt>
      <trkpt lat="50.56414" lon="3.55506">
        <ele>51</ele>
        <time>2025-12-15T16:14:45Z</time>
      </trkpt>
      <trkpt lat="50.56447" lon="3.55563">
        <ele>52</ele>
        <time>2025-12-15T16:14:54Z</time>
      </trkpt>
      <trkpt lat="50.56488" lon="3.55646">
        <ele>52</ele>
        <time>2025-12-15T16:15:06Z</time>
      </trkpt>
      <trkpt lat="50.56498" lon="3.55674">
        <ele>52</ele>
        <time>2025-12-15T16:15:09Z</time>
      </trkpt>
      <trkpt lat="50.56553" lon="3.55791">
        <ele>54</ele>
        <time>2025-12-15T16:15:26Z</time>
      </trkpt>
      <trkpt lat="50.56577" lon="3.55821">
        <ele>55</ele>
        <time>2025-12-15T16:15:31Z</time>
      </trkpt>
      <trkpt lat="50.56606" lon="3.55849">
        <ele>55</ele>
        <time>2025-12-15T16:15:37Z</time>
      </trkpt>
      <trkpt lat="50.56654" lon="3.55887">
        <ele>56</ele>
        <time>2025-12-15T16:15:47Z</time>
      </trkpt>
      <trkpt lat="50.56669" lon="3.5591">
        <ele>57</ele>
        <time>2025-12-15T16:15:50Z</time>
      </trkpt>
      <trkpt lat="50.56721" lon="3.55948">
        <ele>56</ele>
        <time>2025-12-15T16:16:01Z</time>
      </trkpt>
      <trkpt lat="50.56757" lon="3.55962">
        <ele>56</ele>
        <time>2025-12-15T16:16:07Z</time>
      </trkpt>
      <trkpt lat="50.56845" lon="3.56015">
        <ele>56</ele>
        <time>2025-12-15T16:16:24Z</time>
      </trkpt>
      <trkpt lat="50.56867" lon="3.56032">
        <ele>57</ele>
        <time>2025-12-15T16:16:28Z</time>
      </trkpt>
      <trkpt lat="50.56896" lon="3.56066">
        <ele>58</ele>
        <time>2025-12-15T16:16:35Z</time>
      </trkpt>
      <trkpt lat="50.56922" lon="3.56105">
        <ele>59</ele>
        <time>2025-12-15T16:16:41Z</time>
      </trkpt>
      <trkpt lat="50.56937" lon="3.56133">
        <ele>60</ele>
        <time>2025-12-15T16:16:45Z</time>
      </trkpt>
      <trkpt lat="50.57031" lon="3.56336">
        <ele>64</ele>
        <time>2025-12-15T16:17:14Z</time>
      </trkpt>
      <trkpt lat="50.57041" lon="3.56373">
        <ele>64</ele>
        <time>2025-12-15T16:17:18Z</time>
      </trkpt>
      <trkpt lat="50.57052" lon="3.56467">
        <ele>64</ele>
        <time>2025-12-15T16:17:29Z</time>
      </trkpt>
      <trkpt lat="50.5707" lon="3.56522">
        <ele>65</ele>
        <time>2025-12-15T16:17:36Z</time>
      </trkpt>
      <trkpt lat="50.57089" lon="3.5656">
        <ele>66</ele>
        <time>2025-12-15T16:17:41Z</time>
      </trkpt>
      <trkpt lat="50.57114" lon="3.56601">
        <ele>67</ele>
        <time>2025-12-15T16:17:48Z</time>
      </trkpt>
      <trkpt lat="50.57163" lon="3.56711">
        <ele>67</ele>
        <time>2025-12-15T16:18:03Z</time>
      </trkpt>
      <trkpt lat="50.57214" lon="3.56817">
        <ele>67</ele>
        <time>2025-12-15T16:18:18Z</time>
      </trkpt>
      <trkpt lat="50.57272" lon="3.56935">
        <ele>66</ele>
        <time>2025-12-15T16:18:35Z</time>
      </trkpt>
      <trkpt lat="50.57364" lon="3.57111">
        <ele>63</ele>
        <time>2025-12-15T16:19:01Z</time>
      </trkpt>
      <trkpt lat="50.57351" lon="3.57193">
        <ele>64</ele>
        <time>2025-12-15T16:19:10Z</time>
      </trkpt>
      <trkpt lat="50.57354" lon="3.57205">
        <ele>64</ele>
        <time>2025-12-15T16:19:12Z</time>
      </trkpt>
      <trkpt lat="50.57418" lon="3.57346">
        <ele>62</ele>
        <time>2025-12-15T16:19:31Z</time>
      </trkpt>
      <trkpt lat="50.57504" lon="3.57562">
        <ele>59</ele>
        <time>2025-12-15T16:20:00Z</time>
      </trkpt>
      <trkpt lat="50.57556" lon="3.57661">
        <ele>57</ele>
        <time>2025-12-15T16:20:15Z</time>
      </trkpt>
      <trkpt lat="50.57585" lon="3.57743">
        <ele>57</ele>
        <time>2025-12-15T16:20:25Z</time>
      </trkpt>
      <trkpt lat="50.57741" lon="3.58211">
        <ele>55</ele>
        <time>2025-12-15T16:21:25Z</time>
      </trkpt>
      <trkpt lat="50.57743" lon="3.5823">
        <ele>55</ele>
        <time>2025-12-15T16:21:27Z</time>
      </trkpt>
      <trkpt lat="50.57736" lon="3.5829">
        <ele>54</ele>
        <time>2025-12-15T16:21:34Z</time>
      </trkpt>
      <trkpt lat="50.57736" lon="3.5831">
        <ele>54</ele>
        <time>2025-12-15T16:21:36Z</time>
      </trkpt>
      <trkpt lat="50.57741" lon="3.58331">
        <ele>54</ele>
        <time>2025-12-15T16:21:39Z</time>
      </trkpt>
      <trkpt lat="50.57747" lon="3.58338">
        <ele>54</ele>
        <time>2025-12-15T16:21:40Z</time>
      </trkpt>
      <trkpt lat="50.57792" lon="3.58349">
        <ele>54</ele>
        <time>2025-12-15T16:21:48Z</time>
      </trkpt>
      <trkpt lat="50.5783" lon="3.58364">
        <ele>55</ele>
        <time>2025-12-15T16:21:55Z</time>
      </trkpt>
      <trkpt lat="50.579" lon="3.58383">
        <ele>55</ele>
        <time>2025-12-15T16:22:08Z</time>
      </trkpt>
      <trkpt lat="50.57925" lon="3.58389">
        <ele>55</ele>
        <time>2025-12-15T16:22:12Z</time>
      </trkpt>
      <trkpt lat="50.57975" lon="3.58392">
        <ele>54</ele>
        <time>2025-12-15T16:22:21Z</time>
      </trkpt>
      <trkpt lat="50.58047" lon="3.58417">
        <ele>52</ele>
        <time>2025-12-15T16:22:34Z</time>
      </trkpt>
      <trkpt lat="50.5806" lon="3.58424">
        <ele>52</ele>
        <time>2025-12-15T16:22:37Z</time>
      </trkpt>
      <trkpt lat="50.5807" lon="3.58434">
        <ele>53</ele>
        <time>2025-12-15T16:22:39Z</time>
      </trkpt>
      <trkpt lat="50.58094" lon="3.58472">
        <ele>53</ele>
        <time>2025-12-15T16:22:45Z</time>
      </trkpt>
      <trkpt lat="50.58107" lon="3.58498">
        <ele>54</ele>
        <time>2025-12-15T16:22:49Z</time>
      </trkpt>
      <trkpt lat="50.58115" lon="3.58545">
        <ele>55</ele>
        <time>2025-12-15T16:22:54Z</time>
      </trkpt>
      <trkpt lat="50.58128" lon="3.58577">
        <ele>56</ele>
        <time>2025-12-15T16:22:59Z</time>
      </trkpt>
      <trkpt lat="50.58141" lon="3.58595">
        <ele>56</ele>
        <time>2025-12-15T16:23:02Z</time>
      </trkpt>
      <trkpt lat="50.58172" lon="3.58615">
        <ele>56</ele>
        <time>2025-12-15T16:23:08Z</time>
      </trkpt>
      <trkpt lat="50.58188" lon="3.58632">
        <ele>57</ele>
        <time>2025-12-15T16:23:11Z</time>
      </trkpt>
      <trkpt lat="50.58217" lon="3.58611">
        <ele>57</ele>
        <time>2025-12-15T16:23:17Z</time>
      </trkpt>
      <trkpt lat="50.58237" lon="3.58604">
        <ele>57</ele>
        <time>2025-12-15T16:23:20Z</time>
      </trkpt>
      <trkpt lat="50.58237" lon="3.58647">
        <ele>58</ele>
        <time>2025-12-15T16:23:25Z</time>
      </trkpt>
      <trkpt lat="50.58241" lon="3.58667">
        <ele>59</ele>
        <time>2025-12-15T16:23:28Z</time>
      </trkpt>
      <trkpt lat="50.58248" lon="3.58686">
        <ele>59</ele>
        <time>2025-12-15T16:23:30Z</time>
      </trkpt>
      <trkpt lat="50.58299" lon="3.58739">
        <ele>60</ele>
        <time>2025-12-15T16:23:41Z</time>
      </trkpt>
      <trkpt lat="50.58388" lon="3.58846">
        <ele>60</ele>
        <time>2025-12-15T16:24:01Z</time>
      </trkpt>
      <trkpt lat="50.58454" lon="3.58946">
        <ele>59</ele>
        <time>2025-12-15T16:24:17Z</time>
      </trkpt>
      <trkpt lat="50.58494" lon="3.59016">
        <ele>58</ele>
        <time>2025-12-15T16:24:28Z</time>
      </trkpt>
      <trkpt lat="50.58523" lon="3.59052">
        <ele>58</ele>
        <time>2025-12-15T16:24:34Z</time>
      </trkpt>
      <trkpt lat="50.58554" lon="3.5908">
        <ele>56</ele>
        <time>2025-12-15T16:24:41Z</time>
      </trkpt>
      <trkpt lat="50.58617" lon="3.5913">
        <ele>54</ele>
        <time>2025-12-15T16:24:53Z</time>
      </trkpt>
      <trkpt lat="50.58707" lon="3.59184">
        <ele>53</ele>
        <time>2025-12-15T16:25:10Z</time>
      </trkpt>
      <trkpt lat="50.58761" lon="3.59196">
        <ele>53</ele>
        <time>2025-12-15T16:25:20Z</time>
      </trkpt>
      <trkpt lat="50.58845" lon="3.59239">
        <ele>52</ele>
        <time>2025-12-15T16:25:36Z</time>
      </trkpt>
      <trkpt lat="50.58992" lon="3.59297">
        <ele>51</ele>
        <time>2025-12-15T16:26:03Z</time>
      </trkpt>
      <trkpt lat="50.59053" lon="3.59323">
        <ele>50</ele>
        <time>2025-12-15T16:26:14Z</time>
      </trkpt>
      <trkpt lat="50.59075" lon="3.59336">
        <ele>50</ele>
        <time>2025-12-15T16:26:18Z</time>
      </trkpt>
      <trkpt lat="50.591" lon="3.59359">
        <ele>50</ele>
        <time>2025-12-15T16:26:23Z</time>
      </trkpt>
      <trkpt lat="50.59179" lon="3.59452">
        <ele>48</ele>
        <time>2025-12-15T16:26:41Z</time>
      </trkpt>
      <trkpt lat="50.59364" lon="3.59624">
        <ele>48</ele>
        <time>2025-12-15T16:27:19Z</time>
      </trkpt>
      <trkpt lat="50.59381" lon="3.59657">
        <ele>48</ele>
        <time>2025-12-15T16:27:24Z</time>
      </trkpt>
      <trkpt lat="50.5941" lon="3.59729">
        <ele>48</ele>
        <time>2025-12-15T16:27:34Z</time>
      </trkpt>
      <trkpt lat="50.59421" lon="3.5975">
        <ele>48</ele>
        <time>2025-12-15T16:27:37Z</time>
      </trkpt>
      <trkpt lat="50.5944" lon="3.59777">
        <ele>48</ele>
        <time>2025-12-15T16:27:41Z</time>
      </trkpt>
      <trkpt lat="50.59462" lon="3.59801">
        <ele>47</ele>
        <time>2025-12-15T16:27:46Z</time>
      </trkpt>
      <trkpt lat="50.59489" lon="3.59825">
        <ele>47</ele>
        <time>2025-12-15T16:27:51Z</time>
      </trkpt>
      <trkpt lat="50.59509" lon="3.5983">
        <ele>47</ele>
        <time>2025-12-15T16:27:55Z</time>
      </trkpt>
      <trkpt lat="50.59522" lon="3.59844">
        <ele>47</ele>
        <time>2025-12-15T16:27:58Z</time>
      </trkpt>
      <trkpt lat="50.59552" lon="3.59942">
        <ele>46</ele>
        <time>2025-12-15T16:28:10Z</time>
      </trkpt>
      <trkpt lat="50.59591" lon="3.60086">
        <ele>46</ele>
        <time>2025-12-15T16:28:28Z</time>
      </trkpt>
      <trkpt lat="50.59594" lon="3.60111">
        <ele>46</ele>
        <time>2025-12-15T16:28:31Z</time>
      </trkpt>
      <trkpt lat="50.59592" lon="3.60135">
        <ele>47</ele>
        <time>2025-12-15T16:28:33Z</time>
      </trkpt>
      <trkpt lat="50.59595" lon="3.60154">
        <ele>47</ele>
        <time>2025-12-15T16:28:36Z</time>
      </trkpt>
      <trkpt lat="50.59602" lon="3.60185">
        <ele>47</ele>
        <time>2025-12-15T16:28:39Z</time>
      </trkpt>
      <trkpt lat="50.5961" lon="3.60191">
        <ele>47</ele>
        <time>2025-12-15T16:28:41Z</time>
      </trkpt>
      <trkpt lat="50.59613" lon="3.60161">
        <ele>46</ele>
        <time>2025-12-15T16:28:44Z</time>
      </trkpt>
      <trkpt lat="50.59626" lon="3.60107">
        <ele>46</ele>
        <time>2025-12-15T16:28:51Z</time>
      </trkpt>
      <trkpt lat="50.59636" lon="3.60166">
        <ele>46</ele>
        <time>2025-12-15T16:28:58Z</time>
      </trkpt>
      <trkpt lat="50.5965" lon="3.6022">
        <ele>47</ele>
        <time>2025-12-15T16:29:04Z</time>
      </trkpt>
      <trkpt lat="50.59891" lon="3.61063">
        <ele>44</ele>
        <time>2025-12-15T16:30:49Z</time>
      </trkpt>
      <trkpt lat="50.599" lon="3.61077">
        <ele>44</ele>
        <time>2025-12-15T16:30:51Z</time>
      </trkpt>
      <trkpt lat="50.59908" lon="3.61066">
        <ele>43</ele>
        <time>2025-12-15T16:30:53Z</time>
      </trkpt>
      <trkpt lat="50.59912" lon="3.61054">
        <ele>43</ele>
        <time>2025-12-15T16:30:54Z</time>
      </trkpt>
      <trkpt lat="50.59915" lon="3.61019">
        <ele>43</ele>
        <time>2025-12-15T16:30:58Z</time>
      </trkpt>
      <trkpt lat="50.59921" lon="3.61004">
        <ele>43</ele>
        <time>2025-12-15T16:31:00Z</time>
      </trkpt>
      <trkpt lat="50.59969" lon="3.60952">
        <ele>45</ele>
        <time>2025-12-15T16:31:11Z</time>
      </trkpt>
      <trkpt lat="50.60073" lon="3.60826">
        <ele>49</ele>
        <time>2025-12-15T16:31:34Z</time>
      </trkpt>
      <trkpt lat="50.60088" lon="3.60804">
        <ele>50</ele>
        <time>2025-12-15T16:31:38Z</time>
      </trkpt>
      <trkpt lat="50.60093" lon="3.60786">
        <ele>50</ele>
        <time>2025-12-15T16:31:40Z</time>
      </trkpt>
      <trkpt lat="50.60094" lon="3.60765">
        <ele>51</ele>
        <time>2025-12-15T16:31:42Z</time>
      </trkpt>
      <trkpt lat="50.60068" lon="3.6068">
        <ele>52</ele>
        <time>2025-12-15T16:31:53Z</time>
      </trkpt>
      <trkpt lat="50.6006" lon="3.6064">
        <ele>53</ele>
        <time>2025-12-15T16:31:58Z</time>
      </trkpt>
      <trkpt lat="50.60061" lon="3.6059">
        <ele>54</ele>
        <time>2025-12-15T16:32:03Z</time>
      </trkpt>
      <trkpt lat="50.60068" lon="3.60553">
        <ele>55</ele>
        <time>2025-12-15T16:32:08Z</time>
      </trkpt>
      <trkpt lat="50.60259" lon="3.59841">
        <ele>66</ele>
        <time>2025-12-15T16:33:35Z</time>
      </trkpt>
      <trkpt lat="50.6027" lon="3.59765">
        <ele>68</ele>
        <time>2025-12-15T16:33:44Z</time>
      </trkpt>
      <trkpt lat="50.60267" lon="3.59691">
        <ele>70</ele>
        <time>2025-12-15T16:33:52Z</time>
      </trkpt>
      <trkpt lat="50.60274" lon="3.59635">
        <ele>70</ele>
        <time>2025-12-15T16:33:59Z</time>
      </trkpt>
      <trkpt lat="50.60282" lon="3.5961">
        <ele>71</ele>
        <time>2025-12-15T16:34:02Z</time>
      </trkpt>
      <trkpt lat="50.60319" lon="3.59535">
        <ele>73</ele>
        <time>2025-12-15T16:34:13Z</time>
      </trkpt>
      <trkpt lat="50.60274" lon="3.5942">
        <ele>74</ele>
        <time>2025-12-15T16:34:28Z</time>
      </trkpt>
      <trkpt lat="50.60258" lon="3.59356">
        <ele>73</ele>
        <time>2025-12-15T16:34:36Z</time>
      </trkpt>
      <trkpt lat="50.60221" lon="3.59182">
        <ele>73</ele>
        <time>2025-12-15T16:34:56Z</time>
      </trkpt>
      <trkpt lat="50.60215" lon="3.5917">
        <ele>74</ele>
        <time>2025-12-15T16:34:58Z</time>
      </trkpt>
      <trkpt lat="50.60243" lon="3.59135">
        <ele>74</ele>
        <time>2025-12-15T16:35:04Z</time>
      </trkpt>
      <trkpt lat="50.60281" lon="3.59099">
        <ele>75</ele>
        <time>2025-12-15T16:35:12Z</time>
      </trkpt>
      <trkpt lat="50.60328" lon="3.59064">
        <ele>76</ele>
        <time>2025-12-15T16:35:22Z</time>
      </trkpt>
      <trkpt lat="50.60407" lon="3.59024">
        <ele>73</ele>
        <time>2025-12-15T16:35:36Z</time>
      </trkpt>
      <trkpt lat="50.60525" lon="3.58977">
        <ele>68</ele>
        <time>2025-12-15T16:35:58Z</time>
      </trkpt>
      <trkpt lat="50.60555" lon="3.58962">
        <ele>68</ele>
        <time>2025-12-15T16:36:04Z</time>
      </trkpt>
      <trkpt lat="50.60588" lon="3.58937">
        <ele>68</ele>
        <time>2025-12-15T16:36:10Z</time>
      </trkpt>
      <trkpt lat="50.60664" lon="3.58869">
        <ele>69</ele>
        <time>2025-12-15T16:36:26Z</time>
      </trkpt>
      <trkpt lat="50.60733" lon="3.58819">
        <ele>69</ele>
        <time>2025-12-15T16:36:39Z</time>
      </trkpt>
      <trkpt lat="50.60779" lon="3.58777">
        <ele>69</ele>
        <time>2025-12-15T16:36:49Z</time>
      </trkpt>
      <trkpt lat="50.60906" lon="3.58628">
        <ele>61</ele>
        <time>2025-12-15T16:37:17Z</time>
      </trkpt>
      <trkpt lat="50.61033" lon="3.58469">
        <ele>60</ele>
        <time>2025-12-15T16:37:46Z</time>
      </trkpt>
      <trkpt lat="50.61068" lon="3.58418">
        <ele>60</ele>
        <time>2025-12-15T16:37:54Z</time>
      </trkpt>
      <trkpt lat="50.61131" lon="3.58357">
        <ele>62</ele>
        <time>2025-12-15T16:38:07Z</time>
      </trkpt>
      <trkpt lat="50.61142" lon="3.58349">
        <ele>63</ele>
        <time>2025-12-15T16:38:09Z</time>
      </trkpt>
      <trkpt lat="50.61246" lon="3.58301">
        <ele>68</ele>
        <time>2025-12-15T16:38:29Z</time>
      </trkpt>
      <trkpt lat="50.61263" lon="3.58301">
        <ele>69</ele>
        <time>2025-12-15T16:38:32Z</time>
      </trkpt>
      <trkpt lat="50.6127" lon="3.58307">
        <ele>70</ele>
        <time>2025-12-15T16:38:33Z</time>
      </trkpt>
      <trkpt lat="50.61281" lon="3.58309">
        <ele>70</ele>
        <time>2025-12-15T16:38:35Z</time>
      </trkpt>
      <trkpt lat="50.61352" lon="3.58282">
        <ele>74</ele>
        <time>2025-12-15T16:38:48Z</time>
      </trkpt>
      <trkpt lat="50.61372" lon="3.58271">
        <ele>75</ele>
        <time>2025-12-15T16:38:52Z</time>
      </trkpt>
      <trkpt lat="50.61402" lon="3.58252">
        <ele>76</ele>
        <time>2025-12-15T16:38:58Z</time>
      </trkpt>
      <trkpt lat="50.61435" lon="3.58224">
        <ele>77</ele>
        <time>2025-12-15T16:39:04Z</time>
      </trkpt>
      <trkpt lat="50.61527" lon="3.58155">
        <ele>77</ele>
        <time>2025-12-15T16:39:22Z</time>
      </trkpt>
      <trkpt lat="50.61571" lon="3.58118">
        <ele>77</ele>
        <time>2025-12-15T16:39:31Z</time>
      </trkpt>
      <trkpt lat="50.61635" lon="3.58056">
        <ele>75</ele>
        <time>2025-12-15T16:39:45Z</time>
      </trkpt>
      <trkpt lat="50.6165" lon="3.58046">
        <ele>75</ele>
        <time>2025-12-15T16:39:48Z</time>
      </trkpt>
      <trkpt lat="50.6167" lon="3.58039">
        <ele>74</ele>
        <time>2025-12-15T16:39:51Z</time>
      </trkpt>
      <trkpt lat="50.61688" lon="3.58038">
        <ele>74</ele>
        <time>2025-12-15T16:39:54Z</time>
      </trkpt>
      <trkpt lat="50.61722" lon="3.58048">
        <ele>73</ele>
        <time>2025-12-15T16:40:01Z</time>
      </trkpt>
      <trkpt lat="50.61754" lon="3.58062">
        <ele>72</ele>
        <time>2025-12-15T16:40:07Z</time>
      </trkpt>
      <trkpt lat="50.61772" lon="3.58062">
        <ele>73</ele>
        <time>2025-12-15T16:40:10Z</time>
      </trkpt>
      <trkpt lat="50.61836" lon="3.58028">
        <ele>75</ele>
        <time>2025-12-15T16:40:22Z</time>
      </trkpt>
      <trkpt lat="50.61993" lon="3.57937">
        <ele>79</ele>
        <time>2025-12-15T16:40:52Z</time>
      </trkpt>
      <trkpt lat="50.61981" lon="3.57858">
        <ele>78</ele>
        <time>2025-12-15T16:41:01Z</time>
      </trkpt>
      <trkpt lat="50.61978" lon="3.5782">
        <ele>78</ele>
        <time>2025-12-15T16:41:05Z</time>
      </trkpt>
      <trkpt lat="50.61978" lon="3.57743">
        <ele>79</ele>
        <time>2025-12-15T16:41:14Z</time>
      </trkpt>
      <trkpt lat="50.61961" lon="3.57414">
        <ele>76</ele>
        <time>2025-12-15T16:41:51Z</time>
      </trkpt>
      <trkpt lat="50.62023" lon="3.57339">
        <ele>76</ele>
        <time>2025-12-15T16:42:05Z</time>
      </trkpt>
      <trkpt lat="50.62094" lon="3.57231">
        <ele>73</ele>
        <time>2025-12-15T16:42:22Z</time>
      </trkpt>
      <trkpt lat="50.62104" lon="3.57214">
        <ele>73</ele>
        <time>2025-12-15T16:42:25Z</time>
      </trkpt>
      <trkpt lat="50.6211" lon="3.57197">
        <ele>73</ele>
        <time>2025-12-15T16:42:27Z</time>
      </trkpt>
      <trkpt lat="50.62111" lon="3.57184">
        <ele>73</ele>
        <time>2025-12-15T16:42:29Z</time>
      </trkpt>
      <trkpt lat="50.62108" lon="3.5707">
        <ele>72</ele>
        <time>2025-12-15T16:42:42Z</time>
      </trkpt>
      <trkpt lat="50.62103" lon="3.57009">
        <ele>72</ele>
        <time>2025-12-15T16:42:49Z</time>
      </trkpt>
      <trkpt lat="50.6209" lon="3.56938">
        <ele>73</ele>
        <time>2025-12-15T16:42:57Z</time>
      </trkpt>
      <trkpt lat="50.62066" lon="3.56849">
        <ele>73</ele>
        <time>2025-12-15T16:43:08Z</time>
      </trkpt>
      <trkpt lat="50.62061" lon="3.56816">
        <ele>72</ele>
        <time>2025-12-15T16:43:12Z</time>
      </trkpt>
      <trkpt lat="50.62061" lon="3.56794">
        <ele>72</ele>
        <time>2025-12-15T16:43:14Z</time>
      </trkpt>
      <trkpt lat="50.62071" lon="3.5675">
        <ele>73</ele>
        <time>2025-12-15T16:43:19Z</time>
      </trkpt>
      <trkpt lat="50.62084" lon="3.56723">
        <ele>73</ele>
        <time>2025-12-15T16:43:23Z</time>
      </trkpt>
      <trkpt lat="50.62129" lon="3.56675">
        <ele>74</ele>
        <time>2025-12-15T16:43:33Z</time>
      </trkpt>
      <trkpt lat="50.62187" lon="3.56629">
        <ele>75</ele>
        <time>2025-12-15T16:43:44Z</time>
      </trkpt>
      <trkpt lat="50.62201" lon="3.56606">
        <ele>75</ele>
        <time>2025-12-15T16:43:48Z</time>
      </trkpt>
      <trkpt lat="50.62244" lon="3.56519">
        <ele>77</ele>
        <time>2025-12-15T16:44:00Z</time>
      </trkpt>
      <trkpt lat="50.6226" lon="3.56448">
        <ele>77</ele>
        <time>2025-12-15T16:44:09Z</time>
      </trkpt>
      <trkpt lat="50.62303" lon="3.56316">
        <ele>75</ele>
        <time>2025-12-15T16:44:26Z</time>
      </trkpt>
      <trkpt lat="50.62337" lon="3.56102">
        <ele>72</ele>
        <time>2025-12-15T16:44:51Z</time>
      </trkpt>
      <trkpt lat="50.62353" lon="3.56049">
        <ele>72</ele>
        <time>2025-12-15T16:44:57Z</time>
      </trkpt>
      <trkpt lat="50.62458" lon="3.5583">
        <ele>73</ele>
        <time>2025-12-15T16:45:28Z</time>
      </trkpt>
      <trkpt lat="50.62582" lon="3.55527">
        <ele>75</ele>
        <time>2025-12-15T16:46:09Z</time>
      </trkpt>
      <trkpt lat="50.62666" lon="3.55347">
        <ele>79</ele>
        <time>2025-12-15T16:46:34Z</time>
      </trkpt>
      <trkpt lat="50.6275" lon="3.55144">
        <ele>81</ele>
        <time>2025-12-15T16:47:02Z</time>
      </trkpt>
      <trkpt lat="50.62736" lon="3.55103">
        <ele>81</ele>
        <time>2025-12-15T16:47:07Z</time>
      </trkpt>
      <trkpt lat="50.62786" lon="3.55046">
        <ele>80</ele>
        <time>2025-12-15T16:47:18Z</time>
      </trkpt>
      <trkpt lat="50.62824" lon="3.5498">
        <ele>79</ele>
        <time>2025-12-15T16:47:28Z</time>
      </trkpt>
      <trkpt lat="50.62854" lon="3.5491">
        <ele>80</ele>
        <time>2025-12-15T16:47:37Z</time>
      </trkpt>
      <trkpt lat="50.62885" lon="3.54858">
        <ele>79</ele>
        <time>2025-12-15T16:47:45Z</time>
      </trkpt>
      <trkpt lat="50.62931" lon="3.54797">
        <ele>77</ele>
        <time>2025-12-15T16:47:56Z</time>
      </trkpt>
      <trkpt lat="50.62982" lon="3.54735">
        <ele>72</ele>
        <time>2025-12-15T16:48:08Z</time>
      </trkpt>
      <trkpt lat="50.63033" lon="3.54697">
        <ele>67</ele>
        <time>2025-12-15T16:48:18Z</time>
      </trkpt>
      <trkpt lat="50.6313" lon="3.54657">
        <ele>61</ele>
        <time>2025-12-15T16:48:35Z</time>
      </trkpt>
      <trkpt lat="50.63201" lon="3.54609">
        <ele>60</ele>
        <time>2025-12-15T16:48:49Z</time>
      </trkpt>
      <trkpt lat="50.63286" lon="3.54529">
        <ele>59</ele>
        <time>2025-12-15T16:49:07Z</time>
      </trkpt>
      <trkpt lat="50.63327" lon="3.54478">
        <ele>59</ele>
        <time>2025-12-15T16:49:16Z</time>
      </trkpt>
      <trkpt lat="50.63364" lon="3.54442">
        <ele>58</ele>
        <time>2025-12-15T16:49:24Z</time>
      </trkpt>
      <trkpt lat="50.63406" lon="3.54376">
        <ele>57</ele>
        <time>2025-12-15T16:49:34Z</time>
      </trkpt>
      <trkpt lat="50.63439" lon="3.54337">
        <ele>58</ele>
        <time>2025-12-15T16:49:42Z</time>
      </trkpt>
      <trkpt lat="50.63455" lon="3.54308">
        <ele>58</ele>
        <time>2025-12-15T16:49:46Z</time>
      </trkpt>
      <trkpt lat="50.63469" lon="3.54252">
        <ele>58</ele>
        <time>2025-12-15T16:49:53Z</time>
      </trkpt>
      <trkpt lat="50.63455" lon="3.5419">
        <ele>58</ele>
        <time>2025-12-15T16:50:00Z</time>
      </trkpt>
      <trkpt lat="50.63477" lon="3.54147">
        <ele>57</ele>
        <time>2025-12-15T16:50:07Z</time>
      </trkpt>
      <trkpt lat="50.63573" lon="3.54032">
        <ele>57</ele>
        <time>2025-12-15T16:50:28Z</time>
      </trkpt>
      <trkpt lat="50.63594" lon="3.5398">
        <ele>57</ele>
        <time>2025-12-15T16:50:35Z</time>
      </trkpt>
      <trkpt lat="50.63554" lon="3.53893">
        <ele>53</ele>
        <time>2025-12-15T16:50:47Z</time>
      </trkpt>
      <trkpt lat="50.63542" lon="3.5383">
        <ele>50</ele>
        <time>2025-12-15T16:50:54Z</time>
      </trkpt>
      <trkpt lat="50.63541" lon="3.53758">
        <ele>49</ele>
        <time>2025-12-15T16:51:03Z</time>
      </trkpt>
      <trkpt lat="50.63533" lon="3.537">
        <ele>47</ele>
        <time>2025-12-15T16:51:09Z</time>
      </trkpt>
      <trkpt lat="50.63506" lon="3.53641">
        <ele>46</ele>
        <time>2025-12-15T16:51:18Z</time>
      </trkpt>
      <trkpt lat="50.6348" lon="3.53566">
        <ele>46</ele>
        <time>2025-12-15T16:51:27Z</time>
      </trkpt>
      <trkpt lat="50.63454" lon="3.53485">
        <ele>48</ele>
        <time>2025-12-15T16:51:37Z</time>
      </trkpt>
      <trkpt lat="50.63435" lon="3.53402">
        <ele>50</ele>
        <time>2025-12-15T16:51:47Z</time>
      </trkpt>
      <trkpt lat="50.63439" lon="3.53369">
        <ele>51</ele>
        <time>2025-12-15T16:51:51Z</time>
      </trkpt>
      <trkpt lat="50.63504" lon="3.53254">
        <ele>51</ele>
        <time>2025-12-15T16:52:09Z</time>
      </trkpt>
      <trkpt lat="50.63425" lon="3.53183">
        <ele>50</ele>
        <time>2025-12-15T16:52:25Z</time>
      </trkpt>
      <trkpt lat="50.63388" lon="3.5309">
        <ele>51</ele>
        <time>2025-12-15T16:52:37Z</time>
      </trkpt>
      <trkpt lat="50.6334" lon="3.52951">
        <ele>51</ele>
        <time>2025-12-15T16:52:55Z</time>
      </trkpt>
      <trkpt lat="50.63322" lon="3.52842">
        <ele>52</ele>
        <time>2025-12-15T16:53:08Z</time>
      </trkpt>
      <trkpt lat="50.63303" lon="3.52804">
        <ele>53</ele>
        <time>2025-12-15T16:53:13Z</time>
      </trkpt>
      <trkpt lat="50.63044" lon="3.52561">
        <ele>58</ele>
        <time>2025-12-15T16:54:07Z</time>
      </trkpt>
      <trkpt lat="50.63086" lon="3.52384">
        <ele>62</ele>
        <time>2025-12-15T16:54:28Z</time>
      </trkpt>
      <trkpt lat="50.63041" lon="3.52331">
        <ele>63</ele>
        <time>2025-12-15T16:54:38Z</time>
      </trkpt>
      <trkpt lat="50.63017" lon="3.52205">
        <ele>67</ele>
        <time>2025-12-15T16:54:53Z</time>
      </trkpt>
      <trkpt lat="50.62995" lon="3.52068">
        <ele>73</ele>
        <time>2025-12-15T16:55:09Z</time>
      </trkpt>
      <trkpt lat="50.62995" lon="3.52035">
        <ele>74</ele>
        <time>2025-12-15T16:55:13Z</time>
      </trkpt>
      <trkpt lat="50.63013" lon="3.52013">
        <ele>74</ele>
        <time>2025-12-15T16:55:17Z</time>
      </trkpt>
      <trkpt lat="50.6314" lon="3.51919">
        <ele>76</ele>
        <time>2025-12-15T16:55:42Z</time>
      </trkpt>
      <trkpt lat="50.63182" lon="3.51882">
        <ele>77</ele>
        <time>2025-12-15T16:55:50Z</time>
      </trkpt>
      <trkpt lat="50.63218" lon="3.51868">
        <ele>79</ele>
        <time>2025-12-15T16:55:57Z</time>
      </trkpt>
      <trkpt lat="50.63245" lon="3.51847">
        <ele>82</ele>
        <time>2025-12-15T16:56:02Z</time>
      </trkpt>
      <trkpt lat="50.63239" lon="3.51817">
        <ele>84</ele>
        <time>2025-12-15T16:56:06Z</time>
      </trkpt>
      <trkpt lat="50.63219" lon="3.51762">
        <ele>86</ele>
        <time>2025-12-15T16:56:13Z</time>
      </trkpt>
      <trkpt lat="50.6321" lon="3.51719">
        <ele>87</ele>
        <time>2025-12-15T16:56:18Z</time>
      </trkpt>
      <trkpt lat="50.63213" lon="3.51669">
        <ele>90</ele>
        <time>2025-12-15T16:56:24Z</time>
      </trkpt>
      <trkpt lat="50.63223" lon="3.51592">
        <ele>92</ele>
        <time>2025-12-15T16:56:32Z</time>
      </trkpt>
      <trkpt lat="50.63243" lon="3.51545">
        <ele>94</ele>
        <time>2025-12-15T16:56:39Z</time>
      </trkpt>
      <trkpt lat="50.63296" lon="3.51444">
        <ele>86</ele>
        <time>2025-12-15T16:56:54Z</time>
      </trkpt>
      <trkpt lat="50.63309" lon="3.51386">
        <ele>82</ele>
        <time>2025-12-15T16:57:01Z</time>
      </trkpt>
      <trkpt lat="50.63328" lon="3.51337">
        <ele>78</ele>
        <time>2025-12-15T16:57:07Z</time>
      </trkpt>
      <trkpt lat="50.63365" lon="3.51145">
        <ele>77</ele>
        <time>2025-12-15T16:57:30Z</time>
      </trkpt>
      <trkpt lat="50.63343" lon="3.51105">
        <ele>77</ele>
        <time>2025-12-15T16:57:36Z</time>
      </trkpt>
      <trkpt lat="50.6338" lon="3.5107">
        <ele>77</ele>
        <time>2025-12-15T16:57:43Z</time>
      </trkpt>
      <trkpt lat="50.63443" lon="3.50984">
        <ele>76</ele>
        <time>2025-12-15T16:57:58Z</time>
      </trkpt>
      <trkpt lat="50.63458" lon="3.50971">
        <ele>76</ele>
        <time>2025-12-15T16:58:01Z</time>
      </trkpt>
      <trkpt lat="50.63446" lon="3.50854">
        <ele>74</ele>
        <time>2025-12-15T16:58:15Z</time>
      </trkpt>
      <trkpt lat="50.63423" lon="3.50811">
        <ele>74</ele>
        <time>2025-12-15T16:58:21Z</time>
      </trkpt>
      <trkpt lat="50.63346" lon="3.50746">
        <ele>77</ele>
        <time>2025-12-15T16:58:37Z</time>
      </trkpt>
      <trkpt lat="50.63304" lon="3.50702">
        <ele>76</ele>
        <time>2025-12-15T16:58:45Z</time>
      </trkpt>
      <trkpt lat="50.63354" lon="3.50546">
        <ele>69</ele>
        <time>2025-12-15T16:59:05Z</time>
      </trkpt>
      <trkpt lat="50.63386" lon="3.50505">
        <ele>70</ele>
        <time>2025-12-15T16:59:13Z</time>
      </trkpt>
      <trkpt lat="50.63395" lon="3.50474">
        <ele>70</ele>
        <time>2025-12-15T16:59:16Z</time>
      </trkpt>
      <trkpt lat="50.63406" lon="3.50362">
        <ele>72</ele>
        <time>2025-12-15T16:59:29Z</time>
      </trkpt>
      <trkpt lat="50.63419" lon="3.5032">
        <ele>73</ele>
        <time>2025-12-15T16:59:34Z</time>
      </trkpt>
      <trkpt lat="50.63456" lon="3.5027">
        <ele>73</ele>
        <time>2025-12-15T16:59:43Z</time>
      </trkpt>
      <trkpt lat="50.63492" lon="3.50238">
        <ele>73</ele>
        <time>2025-12-15T16:59:50Z</time>
      </trkpt>
      <trkpt lat="50.63551" lon="3.50256">
        <ele>71</ele>
        <time>2025-12-15T17:00:01Z</time>
      </trkpt>
      <trkpt lat="50.63579" lon="3.5024">
        <ele>70</ele>
        <time>2025-12-15T17:00:06Z</time>
      </trkpt>
      <trkpt lat="50.63617" lon="3.50167">
        <ele>68</ele>
        <time>2025-12-15T17:00:17Z</time>
      </trkpt>
      <trkpt lat="50.63646" lon="3.50081">
        <ele>67</ele>
        <time>2025-12-15T17:00:28Z</time>
      </trkpt>
      <trkpt lat="50.63681" lon="3.49924">
        <ele>62</ele>
        <time>2025-12-15T17:00:47Z</time>
      </trkpt>
      <trkpt lat="50.63776" lon="3.49844">
        <ele>60</ele>
        <time>2025-12-15T17:01:06Z</time>
      </trkpt>
      <trkpt lat="50.63851" lon="3.49775">
        <ele>56</ele>
        <time>2025-12-15T17:01:22Z</time>
      </trkpt>
      <trkpt lat="50.63967" lon="3.49732">
        <ele>53</ele>
        <time>2025-12-15T17:01:43Z</time>
      </trkpt>
      <trkpt lat="50.64049" lon="3.49664">
        <ele>50</ele>
        <time>2025-12-15T17:01:59Z</time>
      </trkpt>
      <trkpt lat="50.64088" lon="3.4964">
        <ele>49</ele>
        <time>2025-12-15T17:02:07Z</time>
      </trkpt>
      <trkpt lat="50.64101" lon="3.49626">
        <ele>49</ele>
        <time>2025-12-15T17:02:09Z</time>
      </trkpt>
      <trkpt lat="50.64141" lon="3.49572">
        <ele>48</ele>
        <time>2025-12-15T17:02:19Z</time>
      </trkpt>
      <trkpt lat="50.64143" lon="3.49566">
        <ele>48</ele>
        <time>2025-12-15T17:02:20Z</time>
      </trkpt>
      <trkpt lat="50.64142" lon="3.49551">
        <ele>48</ele>
        <time>2025-12-15T17:02:21Z</time>
      </trkpt>
      <trkpt lat="50.64115" lon="3.49511">
        <ele>49</ele>
        <time>2025-12-15T17:02:28Z</time>
      </trkpt>
      <trkpt lat="50.64063" lon="3.4941">
        <ele>49</ele>
        <time>2025-12-15T17:02:43Z</time>
      </trkpt>
      <trkpt lat="50.64051" lon="3.49381">
        <ele>49</ele>
        <time>2025-12-15T17:02:46Z</time>
      </trkpt>
      <trkpt lat="50.64036" lon="3.49298">
        <ele>50</ele>
        <time>2025-12-15T17:02:56Z</time>
      </trkpt>
      <trkpt lat="50.64022" lon="3.49252">
        <ele>51</ele>
        <time>2025-12-15T17:03:02Z</time>
      </trkpt>
      <trkpt lat="50.64019" lon="3.49234">
        <ele>51</ele>
        <time>2025-12-15T17:03:04Z</time>
      </trkpt>
      <trkpt lat="50.64018" lon="3.49221">
        <ele>52</ele>
        <time>2025-12-15T17:03:06Z</time>
      </trkpt>
      <trkpt lat="50.64022" lon="3.49202">
        <ele>52</ele>
        <time>2025-12-15T17:03:08Z</time>
      </trkpt>
      <trkpt lat="50.64072" lon="3.49142">
        <ele>53</ele>
        <time>2025-12-15T17:03:19Z</time>
      </trkpt>
      <trkpt lat="50.6415" lon="3.49062">
        <ele>53</ele>
        <time>2025-12-15T17:03:36Z</time>
      </trkpt>
      <trkpt lat="50.6417" lon="3.49037">
        <ele>54</ele>
        <time>2025-12-15T17:03:40Z</time>
      </trkpt>
      <trkpt lat="50.64174" lon="3.49015">
        <ele>54</ele>
        <time>2025-12-15T17:03:43Z</time>
      </trkpt>
      <trkpt lat="50.64145" lon="3.48966">
        <ele>56</ele>
        <time>2025-12-15T17:03:50Z</time>
      </trkpt>
      <trkpt lat="50.64143" lon="3.48956">
        <ele>56</ele>
        <time>2025-12-15T17:03:51Z</time>
      </trkpt>
      <trkpt lat="50.64144" lon="3.48945">
        <ele>56</ele>
        <time>2025-12-15T17:03:53Z</time>
      </trkpt>
      <trkpt lat="50.64148" lon="3.48934">
        <ele>56</ele>
        <time>2025-12-15T17:03:54Z</time>
      </trkpt>
      <trkpt lat="50.64213" lon="3.48801">
        <ele>55</ele>
        <time>2025-12-15T17:04:13Z</time>
      </trkpt>
      <trkpt lat="50.64235" lon="3.48761">
        <ele>55</ele>
        <time>2025-12-15T17:04:19Z</time>
      </trkpt>
      <trkpt lat="50.6429" lon="3.4868">
        <ele>56</ele>
        <time>2025-12-15T17:04:32Z</time>
      </trkpt>
      <trkpt lat="50.64336" lon="3.48601">
        <ele>57</ele>
        <time>2025-12-15T17:04:45Z</time>
      </trkpt>
      <trkpt lat="50.64458" lon="3.4838">
        <ele>64</ele>
        <time>2025-12-15T17:05:18Z</time>
      </trkpt>
      <trkpt lat="50.64394" lon="3.48272">
        <ele>67</ele>
        <time>2025-12-15T17:05:34Z</time>
      </trkpt>
      <trkpt lat="50.64333" lon="3.48143">
        <ele>66</ele>
        <time>2025-12-15T17:05:52Z</time>
      </trkpt>
      <trkpt lat="50.64311" lon="3.48082">
        <ele>64</ele>
        <time>2025-12-15T17:06:00Z</time>
      </trkpt>
      <trkpt lat="50.64273" lon="3.47945">
        <ele>60</ele>
        <time>2025-12-15T17:06:17Z</time>
      </trkpt>
      <trkpt lat="50.64192" lon="3.47779">
        <ele>61</ele>
        <time>2025-12-15T17:06:41Z</time>
      </trkpt>
      <trkpt lat="50.64145" lon="3.47583">
        <ele>63</ele>
        <time>2025-12-15T17:07:04Z</time>
      </trkpt>
      <trkpt lat="50.64088" lon="3.47425">
        <ele>68</ele>
        <time>2025-12-15T17:07:25Z</time>
      </trkpt>
      <trkpt lat="50.63971" lon="3.47438">
        <ele>64</ele>
        <time>2025-12-15T17:07:46Z</time>
      </trkpt>
      <trkpt lat="50.63563" lon="3.47498">
        <ele>49</ele>
        <time>2025-12-15T17:08:59Z</time>
      </trkpt>
      <trkpt lat="50.63547" lon="3.47489">
        <ele>49</ele>
        <time>2025-12-15T17:09:02Z</time>
      </trkpt>
      <trkpt lat="50.63529" lon="3.4747">
        <ele>48</ele>
        <time>2025-12-15T17:09:06Z</time>
      </trkpt>
      <trkpt lat="50.63355" lon="3.4726">
        <ele>46</ele>
        <time>2025-12-15T17:09:45Z</time>
      </trkpt>
      <trkpt lat="50.6334" lon="3.47255">
        <ele>46</ele>
        <time>2025-12-15T17:09:47Z</time>
      </trkpt>
      <trkpt lat="50.63323" lon="3.47257">
        <ele>46</ele>
        <time>2025-12-15T17:09:50Z</time>
      </trkpt>
      <trkpt lat="50.63179" lon="3.47347">
        <ele>44</ele>
        <time>2025-12-15T17:10:18Z</time>
      </trkpt>
      <trkpt lat="50.6314" lon="3.47365">
        <ele>43</ele>
        <time>2025-12-15T17:10:25Z</time>
      </trkpt>
      <trkpt lat="50.63103" lon="3.47371">
        <ele>44</ele>
        <time>2025-12-15T17:10:32Z</time>
      </trkpt>
      <trkpt lat="50.62977" lon="3.47377">
        <ele>47</ele>
        <time>2025-12-15T17:10:54Z</time>
      </trkpt>
      <trkpt lat="50.62948" lon="3.4737">
        <ele>48</ele>
        <time>2025-12-15T17:10:59Z</time>
      </trkpt>
      <trkpt lat="50.62924" lon="3.47353">
        <ele>49</ele>
        <time>2025-12-15T17:11:04Z</time>
      </trkpt>
      <trkpt lat="50.62906" lon="3.47336">
        <ele>50</ele>
        <time>2025-12-15T17:11:08Z</time>
      </trkpt>
      <trkpt lat="50.62845" lon="3.47265">
        <ele>54</ele>
        <time>2025-12-15T17:11:21Z</time>
      </trkpt>
      <trkpt lat="50.62667" lon="3.4714">
        <ele>59</ele>
        <time>2025-12-15T17:11:56Z</time>
      </trkpt>
      <trkpt lat="50.62617" lon="3.47102">
        <ele>59</ele>
        <time>2025-12-15T17:12:06Z</time>
      </trkpt>
      <trkpt lat="50.624" lon="3.47011">
        <ele>51</ele>
        <time>2025-12-15T17:12:46Z</time>
      </trkpt>
      <trkpt lat="50.62384" lon="3.46989">
        <ele>50</ele>
        <time>2025-12-15T17:12:50Z</time>
      </trkpt>
      <trkpt lat="50.62312" lon="3.4684">
        <ele>44</ele>
        <time>2025-12-15T17:13:11Z</time>
      </trkpt>
      <trkpt lat="50.623" lon="3.46811">
        <ele>43</ele>
        <time>2025-12-15T17:13:15Z</time>
      </trkpt>
      <trkpt lat="50.62282" lon="3.46787">
        <ele>42</ele>
        <time>2025-12-15T17:13:19Z</time>
      </trkpt>
      <trkpt lat="50.62221" lon="3.46744">
        <ele>41</ele>
        <time>2025-12-15T17:13:31Z</time>
      </trkpt>
      <trkpt lat="50.62168" lon="3.46724">
        <ele>40</ele>
        <time>2025-12-15T17:13:40Z</time>
      </trkpt>
      <trkpt lat="50.62104" lon="3.46721">
        <ele>37</ele>
        <time>2025-12-15T17:13:52Z</time>
      </trkpt>
      <trkpt lat="50.61965" lon="3.46752">
        <ele>32</ele>
        <time>2025-12-15T17:14:17Z</time>
      </trkpt>
      <trkpt lat="50.61938" lon="3.46893">
        <ele>31</ele>
        <time>2025-12-15T17:14:33Z</time>
      </trkpt>
      <trkpt lat="50.61917" lon="3.46904">
        <ele>29</ele>
        <time>2025-12-15T17:14:37Z</time>
      </trkpt>
      <trkpt lat="50.61883" lon="3.46905">
        <ele>28</ele>
        <time>2025-12-15T17:14:43Z</time>
      </trkpt>
      <trkpt lat="50.61871" lon="3.46925">
        <ele>27</ele>
        <time>2025-12-15T17:14:47Z</time>
      </trkpt>
      <trkpt lat="50.6186" lon="3.46934">
        <ele>27</ele>
        <time>2025-12-15T17:14:49Z</time>
      </trkpt>
      <trkpt lat="50.61856" lon="3.46941">
        <ele>27</ele>
        <time>2025-12-15T17:14:50Z</time>
      </trkpt>
      <trkpt lat="50.61839" lon="3.46932">
        <ele>26</ele>
        <time>2025-12-15T17:14:53Z</time>
      </trkpt>
      <trkpt lat="50.61801" lon="3.46877">
        <ele>25</ele>
        <time>2025-12-15T17:15:02Z</time>
      </trkpt>
      <trkpt lat="50.61779" lon="3.46853">
        <ele>25</ele>
        <time>2025-12-15T17:15:07Z</time>
      </trkpt>
      <trkpt lat="50.617" lon="3.46822">
        <ele>26</ele>
        <time>2025-12-15T17:15:21Z</time>
      </trkpt>
      <trkpt lat="50.61692" lon="3.4676">
        <ele>27</ele>
        <time>2025-12-15T17:15:29Z</time>
      </trkpt>
      <trkpt lat="50.61694" lon="3.46672">
        <ele>28</ele>
        <time>2025-12-15T17:15:39Z</time>
      </trkpt>
      <trkpt lat="50.61708" lon="3.4657">
        <ele>27</ele>
        <time>2025-12-15T17:15:50Z</time>
      </trkpt>
      <trkpt lat="50.61717" lon="3.46271">
        <ele>27</ele>
        <time>2025-12-15T17:16:24Z</time>
      </trkpt>
      <trkpt lat="50.61725" lon="3.46182">
        <ele>26</ele>
        <time>2025-12-15T17:16:34Z</time>
      </trkpt>
      <trkpt lat="50.61709" lon="3.46139">
        <ele>27</ele>
        <time>2025-12-15T17:16:40Z</time>
      </trkpt>
      <trkpt lat="50.61687" lon="3.46109">
        <ele>28</ele>
        <time>2025-12-15T17:16:45Z</time>
      </trkpt>
      <trkpt lat="50.61682" lon="3.46074">
        <ele>27</ele>
        <time>2025-12-15T17:16:49Z</time>
      </trkpt>
      <trkpt lat="50.61682" lon="3.45957">
        <ele>27</ele>
        <time>2025-12-15T17:17:02Z</time>
      </trkpt>
      <trkpt lat="50.61667" lon="3.45777">
        <ele>27</ele>
        <time>2025-12-15T17:17:23Z</time>
      </trkpt>
      <trkpt lat="50.61641" lon="3.45565">
        <ele>25</ele>
        <time>2025-12-15T17:17:47Z</time>
      </trkpt>
      <trkpt lat="50.61649" lon="3.45523">
        <ele>25</ele>
        <time>2025-12-15T17:17:52Z</time>
      </trkpt>
      <trkpt lat="50.61664" lon="3.45501">
        <ele>25</ele>
        <time>2025-12-15T17:17:56Z</time>
      </trkpt>
      <trkpt lat="50.61763" lon="3.45405">
        <ele>24</ele>
        <time>2025-12-15T17:18:16Z</time>
      </trkpt>
      <trkpt lat="50.61791" lon="3.45369">
        <ele>22</ele>
        <time>2025-12-15T17:18:23Z</time>
      </trkpt>
      <trkpt lat="50.61816" lon="3.45352">
        <ele>22</ele>
        <time>2025-12-15T17:18:28Z</time>
      </trkpt>
      <trkpt lat="50.61905" lon="3.45401">
        <ele>23</ele>
        <time>2025-12-15T17:18:45Z</time>
      </trkpt>
      <trkpt lat="50.61968" lon="3.45456">
        <ele>23</ele>
        <time>2025-12-15T17:18:57Z</time>
      </trkpt>
      <trkpt lat="50.62043" lon="3.45449">
        <ele>25</ele>
        <time>2025-12-15T17:19:11Z</time>
      </trkpt>
      <trkpt lat="50.62076" lon="3.45455">
        <ele>26</ele>
        <time>2025-12-15T17:19:17Z</time>
      </trkpt>
      <trkpt lat="50.62097" lon="3.45352">
        <ele>25</ele>
        <time>2025-12-15T17:19:29Z</time>
      </trkpt>
      <trkpt lat="50.6211" lon="3.45313">
        <ele>26</ele>
        <time>2025-12-15T17:19:34Z</time>
      </trkpt>
      <trkpt lat="50.62143" lon="3.4525">
        <ele>29</ele>
        <time>2025-12-15T17:19:43Z</time>
      </trkpt>
      <trkpt lat="50.62148" lon="3.45217">
        <ele>30</ele>
        <time>2025-12-15T17:19:47Z</time>
      </trkpt>
      <trkpt lat="50.62135" lon="3.45153">
        <ele>31</ele>
        <time>2025-12-15T17:19:54Z</time>
      </trkpt>
      <trkpt lat="50.62138" lon="3.45048">
        <ele>32</ele>
        <time>2025-12-15T17:20:06Z</time>
      </trkpt>
      <trkpt lat="50.62134" lon="3.44992">
        <ele>32</ele>
        <time>2025-12-15T17:20:13Z</time>
      </trkpt>
      <trkpt lat="50.62092" lon="3.44808">
        <ele>28</ele>
        <time>2025-12-15T17:20:35Z</time>
      </trkpt>
      <trkpt lat="50.62053" lon="3.44349">
        <ele>23</ele>
        <time>2025-12-15T17:21:27Z</time>
      </trkpt>
      <trkpt lat="50.61975" lon="3.44105">
        <ele>22</ele>
        <time>2025-12-15T17:21:58Z</time>
      </trkpt>
      <trkpt lat="50.61968" lon="3.44012">
        <ele>22</ele>
        <time>2025-12-15T17:22:08Z</time>
      </trkpt>
      <trkpt lat="50.61992" lon="3.43803">
        <ele>25</ele>
        <time>2025-12-15T17:22:32Z</time>
      </trkpt>
      <trkpt lat="50.6199" lon="3.43693">
        <ele>26</ele>
        <time>2025-12-15T17:22:45Z</time>
      </trkpt>
      <trkpt lat="50.61945" lon="3.43667">
        <ele>22</ele>
        <time>2025-12-15T17:22:53Z</time>
      </trkpt>
      <trkpt lat="50.61924" lon="3.43659">
        <ele>21</ele>
        <time>2025-12-15T17:22:57Z</time>
      </trkpt>
      <trkpt lat="50.61909" lon="3.43636">
        <ele>20</ele>
        <time>2025-12-15T17:23:01Z</time>
      </trkpt>
      <trkpt lat="50.61882" lon="3.43577">
        <ele>21</ele>
        <time>2025-12-15T17:23:09Z</time>
      </trkpt>
      <trkpt lat="50.6187" lon="3.43589">
        <ele>20</ele>
        <time>2025-12-15T17:23:12Z</time>
      </trkpt>
      <trkpt lat="50.61857" lon="3.43632">
        <ele>20</ele>
        <time>2025-12-15T17:23:17Z</time>
      </trkpt>
      <trkpt lat="50.61839" lon="3.43658">
        <ele>20</ele>
        <time>2025-12-15T17:23:21Z</time>
      </trkpt>
      <trkpt lat="50.61781" lon="3.43703">
        <ele>20</ele>
        <time>2025-12-15T17:23:33Z</time>
      </trkpt>
      <trkpt lat="50.6172" lon="3.437">
        <ele>21</ele>
        <time>2025-12-15T17:23:44Z</time>
      </trkpt>
      <trkpt lat="50.61669" lon="3.43729">
        <ele>21</ele>
        <time>2025-12-15T17:23:53Z</time>
      </trkpt>
      <trkpt lat="50.61522" lon="3.43835">
        <ele>22</ele>
        <time>2025-12-15T17:24:22Z</time>
      </trkpt>
      <trkpt lat="50.61497" lon="3.43687">
        <ele>23</ele>
        <time>2025-12-15T17:24:39Z</time>
      </trkpt>
      <trkpt lat="50.61484" lon="3.43626">
        <ele>23</ele>
        <time>2025-12-15T17:24:47Z</time>
      </trkpt>
      <trkpt lat="50.61467" lon="3.43564">
        <ele>23</ele>
        <time>2025-12-15T17:24:54Z</time>
      </trkpt>
      <trkpt lat="50.61419" lon="3.43457">
        <ele>24</ele>
        <time>2025-12-15T17:25:09Z</time>
      </trkpt>
      <trkpt lat="50.61387" lon="3.43334">
        <ele>22</ele>
        <time>2025-12-15T17:25:24Z</time>
      </trkpt>
      <trkpt lat="50.61272" lon="3.42834">
        <ele>22</ele>
        <time>2025-12-15T17:26:24Z</time>
      </trkpt>
      <trkpt lat="50.61242" lon="3.42747">
        <ele>23</ele>
        <time>2025-12-15T17:26:35Z</time>
      </trkpt>
      <trkpt lat="50.61192" lon="3.42629">
        <ele>19</ele>
        <time>2025-12-15T17:26:51Z</time>
      </trkpt>
      <trkpt lat="50.61131" lon="3.42526">
        <ele>19</ele>
        <time>2025-12-15T17:27:07Z</time>
      </trkpt>
      <trkpt lat="50.61068" lon="3.42412">
        <ele>18</ele>
        <time>2025-12-15T17:27:24Z</time>
      </trkpt>
      <trkpt lat="50.61016" lon="3.42297">
        <ele>19</ele>
        <time>2025-12-15T17:27:40Z</time>
      </trkpt>
      <trkpt lat="50.60962" lon="3.42221">
        <ele>19</ele>
        <time>2025-12-15T17:27:53Z</time>
      </trkpt>
      <trkpt lat="50.6091" lon="3.4212">
        <ele>18</ele>
        <time>2025-12-15T17:28:08Z</time>
      </trkpt>
      <trkpt lat="50.60866" lon="3.41998">
        <ele>19</ele>
        <time>2025-12-15T17:28:24Z</time>
      </trkpt>
      <trkpt lat="50.60858" lon="3.41947">
        <ele>18</ele>
        <time>2025-12-15T17:28:30Z</time>
      </trkpt>
      <trkpt lat="50.60857" lon="3.41859">
        <ele>18</ele>
        <time>2025-12-15T17:28:40Z</time>
      </trkpt>
      <trkpt lat="50.60848" lon="3.41805">
        <ele>19</ele>
        <time>2025-12-15T17:28:46Z</time>
      </trkpt>
      <trkpt lat="50.60719" lon="3.41546">
        <ele>19</ele>
        <time>2025-12-15T17:29:23Z</time>
      </trkpt>
      <trkpt lat="50.60703" lon="3.41548">
        <ele>19</ele>
        <time>2025-12-15T17:29:26Z</time>
      </trkpt>
      <trkpt lat="50.60684" lon="3.41582">
        <ele>18</ele>
        <time>2025-12-15T17:29:31Z</time>
      </trkpt>
      <trkpt lat="50.60635" lon="3.41639">
        <ele>20</ele>
        <time>2025-12-15T17:29:42Z</time>
      </trkpt>
      <trkpt lat="50.6061" lon="3.41648">
        <ele>22</ele>
        <time>2025-12-15T17:29:46Z</time>
      </trkpt>
      <trkpt lat="50.60426" lon="3.41552">
        <ele>29</ele>
        <time>2025-12-15T17:30:21Z</time>
      </trkpt>
      <trkpt lat="50.60333" lon="3.41517">
        <ele>32</ele>
        <time>2025-12-15T17:30:38Z</time>
      </trkpt>
      <trkpt lat="50.60195" lon="3.41402">
        <ele>27</ele>
        <time>2025-12-15T17:31:06Z</time>
      </trkpt>
      <trkpt lat="50.60163" lon="3.41355">
        <ele>25</ele>
        <time>2025-12-15T17:31:14Z</time>
      </trkpt>
      <trkpt lat="50.60126" lon="3.41312">
        <ele>25</ele>
        <time>2025-12-15T17:31:22Z</time>
      </trkpt>
      <trkpt lat="50.60031" lon="3.41291">
        <ele>26</ele>
        <time>2025-12-15T17:31:39Z</time>
      </trkpt>
      <trkpt lat="50.59996" lon="3.41294">
        <ele>27</ele>
        <time>2025-12-15T17:31:45Z</time>
      </trkpt>
      <trkpt lat="50.59974" lon="3.413">
        <ele>27</ele>
        <time>2025-12-15T17:31:49Z</time>
      </trkpt>
      <trkpt lat="50.59956" lon="3.41296">
        <ele>27</ele>
        <time>2025-12-15T17:31:52Z</time>
      </trkpt>
      <trkpt lat="50.59928" lon="3.41282">
        <ele>26</ele>
        <time>2025-12-15T17:31:57Z</time>
      </trkpt>
      <trkpt lat="50.59849" lon="3.41272">
        <ele>25</ele>
        <time>2025-12-15T17:32:12Z</time>
      </trkpt>
      <trkpt lat="50.59676" lon="3.41223">
        <ele>20</ele>
        <time>2025-12-15T17:32:43Z</time>
      </trkpt>
      <trkpt lat="50.59654" lon="3.41259">
        <ele>20</ele>
        <time>2025-12-15T17:32:48Z</time>
      </trkpt>
      <trkpt lat="50.5964" lon="3.41305">
        <ele>19</ele>
        <time>2025-12-15T17:32:54Z</time>
      </trkpt>
      <trkpt lat="50.59621" lon="3.41316">
        <ele>19</ele>
        <time>2025-12-15T17:32:58Z</time>
      </trkpt>
      <trkpt lat="50.59578" lon="3.41376">
        <ele>18</ele>
        <time>2025-12-15T17:33:08Z</time>
      </trkpt>
      <trkpt lat="50.59522" lon="3.41506">
        <ele>19</ele>
        <time>2025-12-15T17:33:26Z</time>
      </trkpt>
      <trkpt lat="50.59476" lon="3.41628">
        <ele>29</ele>
        <time>2025-12-15T17:33:42Z</time>
      </trkpt>
      <trkpt lat="50.59435" lon="3.41713">
        <ele>28</ele>
        <time>2025-12-15T17:33:54Z</time>
      </trkpt>
      <trkpt lat="50.59263" lon="3.42038">
        <ele>18</ele>
        <time>2025-12-15T17:34:42Z</time>
      </trkpt>
      <trkpt lat="50.59091" lon="3.42378">
        <ele>16</ele>
        <time>2025-12-15T17:35:31Z</time>
      </trkpt>
      <trkpt lat="50.59025" lon="3.42468">
        <ele>16</ele>
        <time>2025-12-15T17:35:46Z</time>
      </trkpt>
      <trkpt lat="50.58978" lon="3.42577">
        <ele>16</ele>
        <time>2025-12-15T17:36:01Z</time>
      </trkpt>
      <trkpt lat="50.58945" lon="3.42646">
        <ele>17</ele>
        <time>2025-12-15T17:36:11Z</time>
      </trkpt>
      <trkpt lat="50.58914" lon="3.42741">
        <ele>17</ele>
        <time>2025-12-15T17:36:23Z</time>
      </trkpt>
      <trkpt lat="50.58763" lon="3.42478">
        <ele>22</ele>
        <time>2025-12-15T17:37:03Z</time>
      </trkpt>
      <trkpt lat="50.58736" lon="3.42508">
        <ele>21</ele>
        <time>2025-12-15T17:37:09Z</time>
      </trkpt>
      <trkpt lat="50.58682" lon="3.42587">
        <ele>23</ele>
        <time>2025-12-15T17:37:22Z</time>
      </trkpt>
      <trkpt lat="50.58596" lon="3.42765">
        <ele>22</ele>
        <time>2025-12-15T17:37:47Z</time>
      </trkpt>
      <trkpt lat="50.58525" lon="3.42904">
        <ele>20</ele>
        <time>2025-12-15T17:38:07Z</time>
      </trkpt>
      <trkpt lat="50.58405" lon="3.4308">
        <ele>22</ele>
        <time>2025-12-15T17:38:37Z</time>
      </trkpt>
      <trkpt lat="50.58227" lon="3.43273">
        <ele>31</ele>
        <time>2025-12-15T17:39:15Z</time>
      </trkpt>
      <trkpt lat="50.58131" lon="3.43366">
        <ele>29</ele>
        <time>2025-12-15T17:39:35Z</time>
      </trkpt>
      <trkpt lat="50.5803" lon="3.43486">
        <ele>26</ele>
        <time>2025-12-15T17:39:58Z</time>
      </trkpt>
      <trkpt lat="50.57998" lon="3.43508">
        <ele>25</ele>
        <time>2025-12-15T17:40:04Z</time>
      </trkpt>
      <trkpt lat="50.57924" lon="3.43534">
        <ele>26</ele>
        <time>2025-12-15T17:40:17Z</time>
      </trkpt>
      <trkpt lat="50.57889" lon="3.43553">
        <ele>26</ele>
        <time>2025-12-15T17:40:24Z</time>
      </trkpt>
      <trkpt lat="50.57857" lon="3.43583">
        <ele>26</ele>
        <time>2025-12-15T17:40:31Z</time>
      </trkpt>
      <trkpt lat="50.57827" lon="3.43623">
        <ele>28</ele>
        <time>2025-12-15T17:40:38Z</time>
      </trkpt>
      <trkpt lat="50.57809" lon="3.43661">
        <ele>29</ele>
        <time>2025-12-15T17:40:43Z</time>
      </trkpt>
      <trkpt lat="50.57825" lon="3.43764">
        <ele>28</ele>
        <time>2025-12-15T17:40:55Z</time>
      </trkpt>
      <trkpt lat="50.57817" lon="3.43785">
        <ele>27</ele>
        <time>2025-12-15T17:40:58Z</time>
      </trkpt>
      <trkpt lat="50.57798" lon="3.43805">
        <ele>27</ele>
        <time>2025-12-15T17:41:02Z</time>
      </trkpt>
      <trkpt lat="50.57708" lon="3.43862">
        <ele>29</ele>
        <time>2025-12-15T17:41:19Z</time>
      </trkpt>
      <trkpt lat="50.57674" lon="3.43898">
        <ele>28</ele>
        <time>2025-12-15T17:41:26Z</time>
      </trkpt>
      <trkpt lat="50.57614" lon="3.43938">
        <ele>26</ele>
        <time>2025-12-15T17:41:38Z</time>
      </trkpt>
      <trkpt lat="50.57498" lon="3.43979">
        <ele>17</ele>
        <time>2025-12-15T17:41:59Z</time>
      </trkpt>
      <trkpt lat="50.57041" lon="3.44111">
        <ele>17</ele>
        <time>2025-12-15T17:43:22Z</time>
      </trkpt>
      <trkpt lat="50.56827" lon="3.44097">
        <ele>19</ele>
        <time>2025-12-15T17:44:00Z</time>
      </trkpt>
      <trkpt lat="50.56822" lon="3.44114">
        <ele>18</ele>
        <time>2025-12-15T17:44:02Z</time>
      </trkpt>
      <trkpt lat="50.56788" lon="3.44114">
        <ele>18</ele>
        <time>2025-12-15T17:44:08Z</time>
      </trkpt>
      <trkpt lat="50.56763" lon="3.44121">
        <ele>18</ele>
        <time>2025-12-15T17:44:13Z</time>
      </trkpt>
      <trkpt lat="50.56753" lon="3.4415">
        <ele>15</ele>
        <time>2025-12-15T17:44:16Z</time>
      </trkpt>
      <trkpt lat="50.56746" lon="3.44204">
        <ele>14</ele>
        <time>2025-12-15T17:44:22Z</time>
      </trkpt>
      <trkpt lat="50.56737" lon="3.44335">
        <ele>15</ele>
        <time>2025-12-15T17:44:37Z</time>
      </trkpt>
      <trkpt lat="50.56752" lon="3.44454">
        <ele>18</ele>
        <time>2025-12-15T17:44:51Z</time>
      </trkpt>
      <trkpt lat="50.56755" lon="3.44513">
        <ele>19</ele>
        <time>2025-12-15T17:44:58Z</time>
      </trkpt>
    </trkseg>
  </trk>
</gpx>